[000:163] [2024-11-29 11:25:01 +0000.
939440][70d] Log to
file:/storage/emulated/0/voip-data/[Link]/[Link] start time:2024-11-
29 11:25:01 +0000
[000:163] [2024-11-29 11:25:01 +0000.939553][70d] set AppID=50011 old AppID=-1
[000:163] [2024-11-29 11:25:01 +0000.939587][70d] Init the android object with
jvm:0xb400007c69e21380 env:0x7c4c5638c0 context:0x7bf5bd52e8
[000:163] [2024-11-29 11:25:01 +0000.939625][70d] SetAndroidMediaCodecObjects
time:2292003841 enter.
[000:163] [2024-11-29 11:25:01 +0000.939660][70d] SetAndroidMediaCodecObjects
leave. expire time = 0 ms
[000:163] [2024-11-29 11:25:01 +0000.939704][70d] SetAndroidMediaCodecObjects
time:2292003841 enter.
[000:163] [2024-11-29 11:25:01 +0000.939743][70d] SetAndroidMediaCodecObjects:
SetAndroidMediaCodecObjects:: jvm :0xb400007c69e21380
[000:163] [2024-11-29 11:25:01 +0000.939787][70d] SetAndroidMediaCodecObjects:
SetAndroidMediaCodecObjects success g_jvm_:0xb400007c69e21380 address:0x7b9f76d760
[000:163] [2024-11-29 11:25:01 +0000.939829][70d] SetAndroidMediaCodecObjects:
SetAndroidMediaCodecObjects success g_jvm_encoder_:0xb400007c69e21380
address:0x7b9f76d760
[000:163] [2024-11-29 11:25:01 +0000.939875][70d] SetAndroidMediaCodecObjects
leave. expire time = 0 ms
[000:163] [2024-11-29 11:25:01 +0000.939934][70d] Set the android objects with
jvm:0xb400007c69e21380 env:0x7c4c5638c0 context:0x7bf5bd52e8
[000:166] [2024-11-29 11:25:01 +0000.942773][70d] audio jni debug :manager
SetAndroidAudioDeviceObjects env:0x7c4c5638c0
[000:166] [2024-11-29 11:25:01 +0000.942864][70d] SystemUtil Init done
[000:173] [2024-11-29 11:25:01 +0000.950217][70d]
Java_com_xiaomi_recordmediaprocess_MediaEffectCamera_ConstructMediaEffectCameraJni:
[000:175] [2024-11-29 11:25:01 +0000.952150][70d] MediaFilterCamera
[000:176] [2024-11-29 11:25:01 +0000.952252][70d] RecordingSessionInternalSimple:
Create session internal:720 X 1280 fps:30
[000:176] [2024-11-29 11:25:01 +0000.952499][70d] createSessionInternal: create
session with video size:720 X 1280 fps:30 bitrate:14680064
[000:176] [2024-11-29 11:25:01 +0000.952558][70d] Recording session using default
bitrate support by app:14680064
[000:176] [2024-11-29 11:25:01 +0000.952711][1608] Error([Link]): Set the
pthread name failed with error:34 name:Thread 0x0x7bcdc0d240
[000:176] [2024-11-29 11:25:01 +0000.952777][1608] setAudioChannelCount_w:
RecordingSessionInternalSimple:set the audio channel count:2
[000:176] [2024-11-29 11:25:01 +0000.952862][70d] setAudioSampleRate:
RecordingSessionInternalSimple:set the audio bitrate:44100
[000:177] [2024-11-29 11:25:01 +0000.953715][70d] Error([Link]): Open the file
failed. error:2
[000:177] [2024-11-29 11:25:01 +0000.953804][70d]
Error(key_value_pair_store.cc:130): load the data failed from: voip_config.ini
[000:177] [2024-11-29 11:25:01 +0000.953894][70d] The device model: 220333qag
usingSoftwareAEC value: 0
[000:180] [2024-11-29 11:25:01 +0000.956482][70d] Error([Link]): Open the file
failed. error:2
[000:180] [2024-11-29 11:25:01 +0000.956545][70d]
Error(key_value_pair_store.cc:130): load the data failed from:
/storage/emulated/0/voip-data/[Link]/voip_config.ini
[000:180] [2024-11-29 11:25:01 +0000.956604][70d] The device model: 220333qag
usingHardwareAEC value: 0
[000:180] [2024-11-29 11:25:01 +0000.956630][70d] The machine device: 220333qag
usingHardwareAEC value: 0
[000:180] [2024-11-29 11:25:01 +0000.956655][70d] Using Default AEC type: software
AEC
[000:181] [2024-11-29 11:25:01 +0000.957958][70d] The device model: 220333qag enum
value: 0
[000:182] [2024-11-29 11:25:01 +0000.958956][70d] GetMachineModel is 220333QAG
[000:182] [2024-11-29 11:25:01 +0000.959035][70d] GetMachineInfo: 220333QAG
[000:182] [2024-11-29 11:25:01 +0000.959089][70d] Construct BeautifyReader begin...
[000:182] [2024-11-29 11:25:01 +0000.959128][70d] dumpStickerRgba:0
dumpStickerYuv:0
[000:182] [2024-11-29 11:25:01 +0000.959166][70d] Construct BeautifyReader done.
[000:185] [2024-11-29 11:25:01 +0000.961353][70d] Error([Link]): Open the file
failed. error:2
[000:185] [2024-11-29 11:25:01 +0000.961408][70d]
Error(key_value_pair_store.cc:130): load the data failed from:
/storage/emulated/0/voip-data/[Link]/support_resolution.txt
[000:185] [2024-11-29 11:25:01 +0000.961566][70d] AppDeviceManagerStartCamera::The
result of start thread is: 1 micOn:0
[000:185] [2024-11-29 11:25:01 +0000.961605][70d] AppDeviceManager telnet server
for statistics started......
[000:185] [2024-11-29 11:25:01 +0000.961620][160b] Error([Link]): Set the
pthread name failed with error:34 name:Thread 0x0x7bcdb909a0
[000:185] [2024-11-29 11:25:01 +0000.962058][70d] CpuOverloadDetect time:2292003863
enter.
[000:185] [2024-11-29 11:25:01 +0000.962166][70d] CpuOverloadDetect leave. expire
time = 0 ms
[000:185] [2024-11-29 11:25:01 +0000.962183][160c] Error([Link]): Set the
pthread name failed with error:34 name:Thread 0x0x7c590842c0
[000:186] [2024-11-29 11:25:01 +0000.962906][70d] AppDeviceMana GetOpenslVoiceMode
before get setting: 1
[000:186] [2024-11-29 11:25:01 +0000.962950][70d] AppDeviceMana GetOpenslVoiceMode
after get setting: 1
[000:190] [2024-11-29 11:25:01 +0000.966378][70d] AudioManagerAndroid
getProperty:[Link].OUTPUT_SAMPLE_RATE
[000:194] [2024-11-29 11:25:01 +0000.970862][70d] AudioManagerAndroid
getProperty:[Link].OUTPUT_FRAMES_PER_BUFFER
[000:195] [2024-11-29 11:25:01 +0000.971426][70d] CreatePlatformSpecificObjects:
[000:195] [2024-11-29 11:25:01 +0000.971477][70d] audio device use opensle input
and opensl output
[000:195] [2024-11-29 11:25:01 +0000.971535][70d] Create OpenSLES output module
with java VM support.
[000:195] [2024-11-29 11:25:01 +0000.971729][70d] AudioManagerAndroid
getProperty:[Link].OUTPUT_SAMPLE_RATE
[000:195] [2024-11-29 11:25:01 +0000.971885][70d] AudioManagerAndroid
getProperty:[Link].OUTPUT_FRAMES_PER_BUFFER
[000:195] [2024-11-29 11:25:01 +0000.972063][70d] Create OpenSLES output module
with buffer num:1
[000:195] [2024-11-29 11:25:01 +0000.972228][70d] AudioManagerAndroid
getProperty:[Link].OUTPUT_SAMPLE_RATE
[000:196] [2024-11-29 11:25:01 +0000.972365][70d] AudioManagerAndroid
getProperty:[Link].OUTPUT_FRAMES_PER_BUFFER
[000:196] [2024-11-29 11:25:01 +0000.972517][70d] Create OpenSLES input module with
java VM support.
[000:196] [2024-11-29 11:25:01 +0000.972561][70d] Create OpenSLES input module with
buffer num:1
[000:196] [2024-11-29 11:25:01 +0000.972632][70d] Error([Link]): Init the
output and input for audio device template.
[000:196] [2024-11-29 11:25:01 +0000.972671][70d] Init the output device.
[000:196] [2024-11-29 11:25:01 +0000.972712][70d] Init the opensl input.
[000:196] [2024-11-29 11:25:01 +0000.972764][70d] AppDeviceManager get setting
samplerate: 0
[000:196] [2024-11-29 11:25:01 +0000.973221][70d] The device model: 220333qag enum
value: 0
[000:197] [2024-11-29 11:25:01 +0000.973881][70d] The device model: 220333qag enum
value: 0
[000:197] [2024-11-29 11:25:01 +0000.973925][70d] Set the sample rate to be:48000
[000:197] [2024-11-29 11:25:01 +0000.973955][70d] Enable the recording stereo:0
[000:197] [2024-11-29 11:25:01 +0000.973992][70d] Set the playout as stereo:1
[000:197] [2024-11-29 11:25:01 +0000.974034][70d] Init the microphone.
[000:198] [2024-11-29 11:25:01 +0000.974609][70d] Update the recording sample rate
to be: 48000
[000:198] [2024-11-29 11:25:01 +0000.974665][70d] Init the speaker.
[000:198] [2024-11-29 11:25:01 +0000.974737][70d] Low latency buffer size:144 low
sample rate:48000
[000:198] [2024-11-29 11:25:01 +0000.975106][70d] Using 1 x 10ms for an audio
frame.
[000:202] [2024-11-29 11:25:01 +0000.978758][70d] Error(splitting_filter.cc:26):
Splitting filter only support two or three bands now.
[000:202] [2024-11-29 11:25:01 +0000.978900][70d] Error(splitting_filter.cc:26):
Splitting filter only support two or three bands now.
[000:202] [2024-11-29 11:25:01 +0000.978982][70d] Error(splitting_filter.cc:26):
Splitting filter only support two or three bands now.
[000:207] [2024-11-29 11:25:01 +0000.984127][70d] The device model:220333qag
[000:208] [2024-11-29 11:25:01 +0000.984265][70d] speaker output factor:100
defaultFactor: 100
[000:208] [2024-11-29 11:25:01 +0000.984316][70d] headset output factor:100
defaultFactor: 100
[000:208] [2024-11-29 11:25:01 +0000.984794][70d] AppDeviceManagerStart finished.
[000:208] [2024-11-29 11:25:01 +0000.984840][70d] AppDeviceManagerStartMic::mic
status is off
[000:208] [2024-11-29 11:25:01 +0000.984895][70d] AppDeviceManagerStartMic update
aec type: 2
[000:208] [2024-11-29 11:25:01 +0000.984930][70d] AppDeviceManagerStartMic update
voiceChangeMode: 4
[000:208] [2024-11-29 11:25:01 +0000.984982][70d]
AudioDeviceDataHandler::setVoiceChangeMode, mode : 4
[000:208] [2024-11-29 11:25:01 +0000.985009][70d]
AudioDeviceDataHandler::StartMicProcess
[000:208] [2024-11-29 11:25:01 +0000.985139][70d] Try to start webrtc recording
device.
[000:208] [2024-11-29 11:25:01 +0000.985179][70d] StartRecording. threadID:1805
[000:208] [2024-11-29 11:25:01 +0000.985239][160d] Error([Link]): Set the
pthread name failed with error:34 name:AudioDeviceDataHandler gapProcessThread
[000:209] [2024-11-29 11:25:01 +0000.985320][160d] haveEnoughProcessedData
[Link]: 0
[000:209] [2024-11-29 11:25:01 +0000.985625][70d] The machine model:220333QAG
[000:209] [2024-11-29 11:25:01 +0000.985693][70d] default mode: Set the recording
mode to voice communication to enable HW AEC .
[000:209] [2024-11-29 11:25:01 +0000.985729][70d] Set the recording mode before
getSetting: 4
[000:209] [2024-11-29 11:25:01 +0000.985759][70d] Set the recording mode after
getSetting: 1
[000:350] [2024-11-29 11:25:02 +0000.126508][70d] StartRecording finished.
[000:350] [2024-11-29 11:25:02 +0000.126595][70d] audio: start the audio mic
checker timer.
[000:350] [2024-11-29 11:25:02 +0000.127216][70d] machine model :redmi
[000:351] [2024-11-29 11:25:02 +0000.127273][70d] Support this machine model :redmi
[000:358] [2024-11-29 11:25:02 +0000.134436][70d] global inited! current sdk
version: 12-14-d8558ab
[000:437] [2024-11-29 11:25:02 +0000.213388][160f] webrtc device:Handle the data
from samplesPerSec recording sample rate:48000 nSamples:480 nBytesPerSample:#
nChannels:#
[000:437] [2024-11-29 11:25:02 +0000.213479][160f] _deviceSampleRate:48000
[000:438] [2024-11-29 11:25:02 +0000.214346][160d] Run AGC when audioType = 0
[000:438] [2024-11-29 11:25:02 +0000.214423][160d]
AudioDeviceDataHandler::MixAndSendOutFrame
[000:896] [2024-11-29 11:25:02 +0000.672514][c93]
Java_com_xiaomi_recordmediaprocess_OpenGlRender_SetCurrentGLContextJni:
[000:896] [2024-11-29 11:25:02 +0000.672832][1609] MediaFilterCamera, recording
file context:0x7c5904c080 input texture:13
[000:896] [2024-11-29 11:25:02 +0000.672892][1609] GLESContext:
[000:896] [2024-11-29 11:25:02 +0000.673006][1609] The result of eglGetDisplay is:
0x1
[000:898] [2024-11-29 11:25:02 +0000.674353][1609] The result of creation:
0x7bbac53700
[000:898] [2024-11-29 11:25:02 +0000.674477][1609] The result of
eglCreatePbufferSurface is: 0x7bbac53800
[000:898] [2024-11-29 11:25:02 +0000.674591][c93]
Java_com_xiaomi_recordmediaprocess_OpenGlRender_SetCurrentGLContextJni:
g_eglcontext: 0x7c5904c080 input_texture: 13
[001:987] [2024-11-29 11:25:03 +0000.763824][160d] haveEnoughProcessedData
[Link]: 10
[002:440] [2024-11-29 11:25:04 +0000.216765][160d] Run AGC when audioType = 0
[003:691] [2024-11-29 11:25:05 +0000.467662][160d] haveEnoughProcessedData
[Link]: 0
[004:438] [2024-11-29 11:25:06 +0000.214824][160d] Run AGC when audioType = 0
[004:438] [2024-11-29 11:25:06 +0000.214996][160d]
AudioDeviceDataHandler::MixAndSendOutFrame
[004:460] [2024-11-29 11:25:06 +0000.236631][70d]
Java_com_xiaomi_recordmediaprocess_MediaEffectCamera_DestructMediaEffectCameraJni:
[004:463] [2024-11-29 11:25:06 +0000.239749][70d] ~MediaFilterCamera
time:2292008141 enter.
[004:463] [2024-11-29 11:25:06 +0000.239908][70d] StopPullFrameAndWriteMp4
time:2292008141 enter.
[004:464] [2024-11-29 11:25:06 +0000.240520][1608] stop recording
[004:464] [2024-11-29 11:25:06 +0000.240610][1608] we have stopped recording before
[004:464] [2024-11-29 11:25:06 +0000.240763][70d] StopPullFrameAndWriteMp4 leave.
expire time = 1 ms
[004:464] [2024-11-29 11:25:06 +0000.241220][70d] DestroyPipelineAndFilters
time:2292008142 enter.
[004:465] [2024-11-29 11:25:06 +0000.241278][70d] DestroyPipelineAndFilters leave.
expire time = 1 ms
[004:465] [2024-11-29 11:25:06 +0000.241307][70d] AppDeviceManagerStopMic
[004:465] [2024-11-29 11:25:06 +0000.241526][70d] AppDeviceManagerStopMic::mic
status is on
[004:465] [2024-11-29 11:25:06 +0000.241834][70d] Try to stop webrtc device.
[004:465] [2024-11-29 11:25:06 +0000.241883][70d] Set record state to
[Link]
[004:521] [2024-11-29 11:25:06 +0000.298060][70d] Try to destory the
[Link]
[004:722] [2024-11-29 11:25:06 +0000.498332][70d] DestroyAudioRecorder:
[004:722] [2024-11-29 11:25:06 +0000.498609][70d] Cleanup the buffer queue in the
recorder.
[004:722] [2024-11-29 11:25:06 +0000.498678][70d] Destroy the recorder.
[004:730] [2024-11-29 11:25:06 +0000.506614][70d] StopRecording finished.
[004:730] [2024-11-29 11:25:06 +0000.506798][70d] The stop recording success.
[004:730] [2024-11-29 11:25:06 +0000.506857][70d]
AudioDeviceDataHandler::StopMicProcess
[004:731] [2024-11-29 11:25:06 +0000.507549][70d] AppDeviceManager stop.
[004:733] [2024-11-29 11:25:06 +0000.509739][70d] Rlease the webrtc device object.
[004:734] [2024-11-29 11:25:06 +0000.511269][70d] OpenSlesInput destruct.
[004:735] [2024-11-29 11:25:06 +0000.511459][70d] OpenSlesOutput destruct.
[004:742] [2024-11-29 11:25:06 +0000.518977][70d] EventDispatchServerScope destruct
[004:743] [2024-11-29 11:25:06 +0000.519366][70d]
Warning([Link]): PhysicalSocketServer destruct
[004:743] [2024-11-29 11:25:06 +0000.519499][70d] ~AudioDeviceDataHandler
[004:745] [2024-11-29 11:25:06 +0000.522231][70d] AppDeviceManagerDestruct.
[004:746] [2024-11-29 11:25:06 +0000.522445][70d] ~AppDeviceManager:
[004:746] [2024-11-29 11:25:06 +0000.522550][70d] ~CpuOverloadDetect
time:2292008424 enter.
[004:746] [2024-11-29 11:25:06 +0000.523108][70d] ~CpuOverloadDetect leave. expire
time = 0 ms
[004:782] [2024-11-29 11:25:06 +0000.558573][70d] Destruct BeautifyReader begin...
[004:782] [2024-11-29 11:25:06 +0000.558657][70d] Destruct BeautifyReader done.
[004:782] [2024-11-29 11:25:06 +0000.558697][70d] ~MediaFilterCamera leave. expire
time = 319 ms
[004:785] [2024-11-29 11:25:06 +0000.562185][70d] ~GLESContext:
[004:787] [2024-11-29 11:25:06 +0000.564223][70d] GLESContext destruct finish.
[004:790] [2024-11-29 11:25:06 +0000.566640][70d] ~RecordingSessionInternalSimple:
RecordingSessionInternalSimple::~RecordingSessionInternalSimple
[004:790] [2024-11-29 11:25:06 +0000.567006][70d] global uninited!
[004:802] [2024-11-29 11:25:06 +0000.578712][70d] clear AppID 50011
[004:802] [2024-11-29 11:25:06 +0000.578864][70d] UnRegister JVM for Xplatform util
[004:802] [2024-11-29 11:25:06 +0000.578899][70d] Dispose::unregister webrtc video
engine
[004:802] [2024-11-29 11:25:06 +0000.578960][70d] Init the android object with
jvm:0x0 env:0x0 context:0x0
[004:802] [2024-11-29 11:25:06 +0000.579011][70d] SetAndroidMediaCodecObjects
time:2292008480 enter.
[004:802] [2024-11-29 11:25:06 +0000.579041][70d] ClearAndroidMediaCodecObjects
time:2292008480 enter.
[004:802] [2024-11-29 11:25:06 +0000.579074][70d] ClearAndroidMediaCodecObjects
leave. expire time = 0 ms
[004:802] [2024-11-29 11:25:06 +0000.579102][70d] SetAndroidMediaCodecObjects
leave. expire time = 0 ms
[004:802] [2024-11-29 11:25:06 +0000.579131][70d] SetAndroidMediaCodecObjects
time:2292008480 enter.
[004:802] [2024-11-29 11:25:06 +0000.579158][70d] SetAndroidMediaCodecObjects:
SetAndroidMediaCodecObjects:: jvm :0x0
[004:802] [2024-11-29 11:25:06 +0000.579208][70d] ClearAndroidMediaCodecObjects
time:2292008480 enter.
[004:803] [2024-11-29 11:25:06 +0000.579252][70d] ClearAndroidMediaCodecObjects
leave. expire time = 1 ms
[004:803] [2024-11-29 11:25:06 +0000.579289][70d] S[000:107] [2024-12-13 03:09:46
+0000.276051][7b5c] Log to
file:/storage/emulated/0/voip-data/[Link]/[Link] start time:2024-12-
13 03:09:46 +0000
[000:107] [2024-12-13 03:09:46 +0000.276142][7b5c] set AppID=50011 old AppID=-1
[000:107] [2024-12-13 03:09:46 +0000.276181][7b5c] Init the android object with
jvm:0xb400006fdd621380 env:0x6fbfd04780 context:0x6f6a3912e8
[000:107] [2024-12-13 03:09:46 +0000.276227][7b5c] SetAndroidMediaCodecObjects
time:731475888 enter.
[000:107] [2024-12-13 03:09:46 +0000.276272][7b5c] SetAndroidMediaCodecObjects
leave. expire time = 0 ms
[000:107] [2024-12-13 03:09:46 +0000.276310][7b5c] SetAndroidMediaCodecObjects
time:731475888 enter.
[000:107] [2024-12-13 03:09:46 +0000.276345][7b5c] SetAndroidMediaCodecObjects:
SetAndroidMediaCodecObjects:: jvm :0xb400006fdd621380
[000:107] [2024-12-13 03:09:46 +0000.276382][7b5c] SetAndroidMediaCodecObjects:
SetAndroidMediaCodecObjects success g_jvm_:0xb400006fdd621380 address:0x6f0e1e7760
[000:107] [2024-12-13 03:09:46 +0000.276420][7b5c] SetAndroidMediaCodecObjects:
SetAndroidMediaCodecObjects success g_jvm_encoder_:0xb400006fdd621380
address:0x6f0e1e7760
[000:107] [2024-12-13 03:09:46 +0000.276456][7b5c] SetAndroidMediaCodecObjects
leave. expire time = 0 ms
[000:107] [2024-12-13 03:09:46 +0000.276507][7b5c] Set the android objects with
jvm:0xb400006fdd621380 env:0x6fbfd04780 context:0x6f6a3912e8
[000:109] [2024-12-13 03:09:46 +0000.278373][7b5c] audio jni debug :manager
SetAndroidAudioDeviceObjects env:0x6fbfd04780
[000:109] [2024-12-13 03:09:46 +0000.278419][7b5c] SystemUtil Init done
[000:111] [2024-12-13 03:09:46 +0000.280593][7b5c]
Java_com_xiaomi_recordmediaprocess_MediaEffectCamera_ConstructMediaEffectCameraJni:
[000:114] [2024-12-13 03:09:46 +0000.283213][7b5c] MediaFilterCamera
[000:114] [2024-12-13 03:09:46 +0000.283279][7b5c] RecordingSessionInternalSimple:
Create session internal:720 X 1280 fps:30
[000:114] [2024-12-13 03:09:46 +0000.283418][7b5c] createSessionInternal: create
session with video size:720 X 1280 fps:30 bitrate:14680064
[000:114] [2024-12-13 03:09:46 +0000.283473][7b5c] Recording session using default
bitrate support by app:14680064
[000:114] [2024-12-13 03:09:46 +0000.283459][a80] Error([Link]): Set the
pthread name failed with error:34 name:Thread 0x0x6fbfe50bc0
[000:114] [2024-12-13 03:09:46 +0000.283679][a80] setAudioChannelCount_w:
RecordingSessionInternalSimple:set the audio channel count:2
[000:115] [2024-12-13 03:09:46 +0000.283792][7b5c] setAudioSampleRate:
RecordingSessionInternalSimple:set the audio bitrate:44100
[000:115] [2024-12-13 03:09:46 +0000.284441][7b5c] Error([Link]): Open the file
failed. error:2
[000:115] [2024-12-13 03:09:46 +0000.284486][7b5c]
Error(key_value_pair_store.cc:130): load the data failed from: voip_config.ini
[000:115] [2024-12-13 03:09:46 +0000.284541][7b5c] The device model: 220333qag
usingSoftwareAEC value: 0
[000:118] [2024-12-13 03:09:46 +0000.286818][7b5c] Error([Link]): Open the file
failed. error:2
[000:118] [2024-12-13 03:09:46 +0000.286875][7b5c]
Error(key_value_pair_store.cc:130): load the data failed from:
/storage/emulated/0/voip-data/[Link]/voip_config.ini
[000:118] [2024-12-13 03:09:46 +0000.286924][7b5c] The device model: 220333qag
usingHardwareAEC value: 0
[000:118] [2024-12-13 03:09:46 +0000.286960][7b5c] The machine device: 220333qag
usingHardwareAEC value: 0
[000:118] [2024-12-13 03:09:46 +0000.286997][7b5c] Using Default AEC type: software
AEC
[000:119] [2024-12-13 03:09:46 +0000.288209][7b5c] The device model: 220333qag enum
value: 0
[000:120] [2024-12-13 03:09:46 +0000.288816][7b5c] GetMachineModel is 220333QAG
[000:120] [2024-12-13 03:09:46 +0000.288891][7b5c] GetMachineInfo: 220333QAG
[000:120] [2024-12-13 03:09:46 +0000.288935][7b5c] Construct BeautifyReader
begin...
[000:120] [2024-12-13 03:09:46 +0000.288995][7b5c] dumpStickerRgba:0
dumpStickerYuv:0
[000:120] [2024-12-13 03:09:46 +0000.289021][7b5c] Construct BeautifyReader done.
[000:126] [2024-12-13 03:09:46 +0000.295046][7b5c] AppDeviceManagerStartCamera::The
result of start thread is: 1 micOn:0
[000:126] [2024-12-13 03:09:46 +0000.295074][a84] Error([Link]): Set the
pthread name failed with error:34 name:Thread 0x0x6fc11a95a0
[000:126] [2024-12-13 03:09:46 +0000.295151][7b5c] AppDeviceManager telnet server
for statistics started......
[000:126] [2024-12-13 03:09:46 +0000.295570][7b5c] CpuOverloadDetect time:731475907
enter.
[000:126] [2024-12-13 03:09:46 +0000.295660][7b5c] CpuOverloadDetect leave. expire
time = 0 ms
[000:126] [2024-12-13 03:09:46 +0000.295683][a85] Error([Link]): Set the
pthread name failed with error:34 name:Thread 0x0x6fc00373c0
[000:127] [2024-12-13 03:09:46 +0000.296400][7b5c] AppDeviceMana
GetOpenslVoiceMode before get setting: 1
[000:127] [2024-12-13 03:09:46 +0000.296441][7b5c] AppDeviceMana
GetOpenslVoiceMode after get setting: 1
[000:131] [2024-12-13 03:09:46 +0000.300550][7b5c] AudioManagerAndroid
getProperty:[Link].OUTPUT_SAMPLE_RATE
[000:134] [2024-12-13 03:09:46 +0000.303383][7b5c] AudioManagerAndroid
getProperty:[Link].OUTPUT_FRAMES_PER_BUFFER
[000:135] [2024-12-13 03:09:46 +0000.304006][7b5c] CreatePlatformSpecificObjects:
[000:135] [2024-12-13 03:09:46 +0000.304058][7b5c] audio device use opensle input
and opensl output
[000:135] [2024-12-13 03:09:46 +0000.304107][7b5c] Create OpenSLES output module
with java VM support.
[000:135] [2024-12-13 03:09:46 +0000.304289][7b5c] AudioManagerAndroid
getProperty:[Link].OUTPUT_SAMPLE_RATE
[000:135] [2024-12-13 03:09:46 +0000.304447][7b5c] AudioManagerAndroid
getProperty:[Link].OUTPUT_FRAMES_PER_BUFFER
[000:135] [2024-12-13 03:09:46 +0000.304633][7b5c] Create OpenSLES output module
with buffer num:1
[000:136] [2024-12-13 03:09:46 +0000.304786][7b5c] AudioManagerAndroid
getProperty:[Link].OUTPUT_SAMPLE_RATE
[000:136] [2024-12-13 03:09:46 +0000.304927][7b5c] AudioManagerAndroid
getProperty:[Link].OUTPUT_FRAMES_PER_BUFFER
[000:136] [2024-12-13 03:09:46 +0000.305090][7b5c] Create OpenSLES input module
with java VM support.
[000:136] [2024-12-13 03:09:46 +0000.305132][7b5c] Create OpenSLES input module
with buffer num:1
[000:136] [2024-12-13 03:09:46 +0000.305208][7b5c] Error([Link]): Init the
output and input for audio device template.
[000:136] [2024-12-13 03:09:46 +0000.305247][7b5c] Init the output device.
[000:136] [2024-12-13 03:09:46 +0000.305292][7b5c] Init the opensl input.
[000:136] [2024-12-13 03:09:46 +0000.305341][7b5c] AppDeviceManager get setting
samplerate: 0
[000:137] [2024-12-13 03:09:46 +0000.305782][7b5c] The device model: 220333qag enum
value: 0
[000:137] [2024-12-13 03:09:46 +0000.306456][7b5c] The device model: 220333qag enum
value: 0
[000:137] [2024-12-13 03:09:46 +0000.306501][7b5c] Set the sample rate to be:48000
[000:137] [2024-12-13 03:09:46 +0000.306545][7b5c] Enable the recording stereo:0
[000:137] [2024-12-13 03:09:46 +0000.306589][7b5c] Set the playout as stereo:1
[000:137] [2024-12-13 03:09:46 +0000.306629][7b5c] Init the microphone.
[000:138] [2024-12-13 03:09:46 +0000.307141][7b5c] Update the recording sample rate
to be: 48000
[000:138] [2024-12-13 03:09:46 +0000.307186][7b5c] Init the speaker.
[000:138] [2024-12-13 03:09:46 +0000.307231][7b5c] Low latency buffer size:144 low
sample rate:48000
[000:138] [2024-12-13 03:09:46 +0000.307511][7b5c] Using 1 x 10ms for an audio
frame.
[000:142] [2024-12-13 03:09:46 +0000.310861][7b5c] Error(splitting_filter.cc:26):
Splitting filter only support two or three bands now.
[000:142] [2024-12-13 03:09:46 +0000.311033][7b5c] Error(splitting_filter.cc:26):
Splitting filter only support two or three bands now.
[000:142] [2024-12-13 03:09:46 +0000.311093][7b5c] Error(splitting_filter.cc:26):
Splitting filter only support two or three bands now.
[000:147] [2024-12-13 03:09:46 +0000.316037][7b5c] The device model:220333qag
[000:147] [2024-12-13 03:09:46 +0000.316129][7b5c] speaker output factor:100
defaultFactor: 100
[000:147] [2024-12-13 03:09:46 +0000.316168][7b5c] headset output factor:100
defaultFactor: 100
[000:147] [2024-12-13 03:09:46 +0000.316644][7b5c] AppDeviceManagerStart finished.
[000:147] [2024-12-13 03:09:46 +0000.316689][7b5c] AppDeviceManagerStartMic::mic
status is off
[000:148] [2024-12-13 03:09:46 +0000.316746][7b5c] AppDeviceManagerStartMic update
aec type: 2
[000:148] [2024-12-13 03:09:46 +0000.316781][7b5c] AppDeviceManagerStartMic update
voiceChangeMode: 4
[000:148] [2024-12-13 03:09:46 +0000.316826][7b5c]
AudioDeviceDataHandler::setVoiceChangeMode, mode : 4
[000:148] [2024-12-13 03:09:46 +0000.316867][7b5c]
AudioDeviceDataHandler::StartMicProcess
[000:148] [2024-12-13 03:09:46 +0000.317011][7b5c] Try to start webrtc recording
device.
[000:148] [2024-12-13 03:09:46 +0000.317051][7b5c] StartRecording. threadID:31580
[000:148] [2024-12-13 03:09:46 +0000.317042][a86] Error([Link]): Set the
pthread name failed with error:34 name:AudioDeviceDataHandler gapProcessThread
[000:148] [2024-12-13 03:09:46 +0000.317116][a86] haveEnoughProcessedData
[Link]: 0
[000:148] [2024-12-13 03:09:46 +0000.317437][7b5c] The machine model:220333QAG
[000:148] [2024-12-13 03:09:46 +0000.317499][7b5c] default mode: Set the recording
mode to voice communication to enable HW AEC .
[000:148] [2024-12-13 03:09:46 +0000.317536][7b5c] Set the recording mode before
getSetting: 4
[000:148] [2024-12-13 03:09:46 +0000.317583][7b5c] Set the recording mode after
getSetting: 1
[000:228] [2024-12-13 03:09:46 +0000.397635][7b5c] StartRecording finished.
[000:229] [2024-12-13 03:09:46 +0000.397707][7b5c] audio: start the audio mic
checker timer.
[000:229] [2024-12-13 03:09:46 +0000.398343][7b5c] machine model :redmi
[000:229] [2024-12-13 03:09:46 +0000.398408][7b5c] Support this machine
model :redmi
[000:233] [2024-12-13 03:09:46 +0000.401999][7b5c] global inited! current sdk
version: 12-14-d8558ab
[000:316] [2024-12-13 03:09:46 +0000.485383][a87] webrtc device:Handle the data
from samplesPerSec recording sample rate:48000 nSamples:480 nBytesPerSample:#
nChannels:#
[000:316] [2024-12-13 03:09:46 +0000.485471][a87] _deviceSampleRate:48000
[000:321] [2024-12-13 03:09:46 +0000.489970][a86] Run AGC when audioType = 0
[000:321] [2024-12-13 03:09:46 +0000.490056][a86]
AudioDeviceDataHandler::MixAndSendOutFrame
[000:747] [2024-12-13 03:09:46 +0000.915860][7c29]
Java_com_xiaomi_recordmediaprocess_OpenGlRender_SetCurrentGLContextJni:
[000:747] [2024-12-13 03:09:46 +0000.916038][a82] MediaFilterCamera, recording file
context:0x6fcb677500 input texture:4
[000:747] [2024-12-13 03:09:46 +0000.916097][a82] GLESContext:
[000:749] [2024-12-13 03:09:46 +0000.918216][a82] The result of eglGetDisplay is:
0x1
[000:750] [2024-12-13 03:09:46 +0000.919428][a82] The result of creation:
0x6f42da0c00
[000:750] [2024-12-13 03:09:46 +0000.919532][a82] The result of
eglCreatePbufferSurface is: 0x6f42da0d00
[000:750] [2024-12-13 03:09:46 +0000.919680][7c29]
Java_com_xiaomi_recordmediaprocess_OpenGlRender_SetCurrentGLContextJni:
g_eglcontext: 0x6fcb677500 input_texture: 4
[001:908] [2024-12-13 03:09:48 +0000.76848][a86] haveEnoughProcessedData
[Link]: 10
[002:318] [2024-12-13 03:09:48 +0000.487168][a86] Run AGC when audioType = 0
[002:321] [2024-12-13 03:09:48 +0000.490394][7b5c]
Java_com_xiaomi_recordmediaprocess_MediaEffectCamera_DestructMediaEffectCameraJni:
[002:321] [2024-12-13 03:09:48 +0000.490630][7b5c] ~MediaFilterCamera
time:731478102 enter.
[002:321] [2024-12-13 03:09:48 +0000.490669][7b5c] StopPullFrameAndWriteMp4
time:731478102 enter.
[002:322] [2024-12-13 03:09:48 +0000.491497][a80] stop recording
[002:322] [2024-12-13 03:09:48 +0000.491608][a80] we have stopped recording before
[002:323] [2024-12-13 03:09:48 +0000.491944][7b5c] StopPullFrameAndWriteMp4 leave.
expire time = 2 ms
[002:323] [2024-12-13 03:09:48 +0000.492549][7b5c] DestroyPipelineAndFilters
time:731478104 enter.
[002:323] [2024-12-13 03:09:48 +0000.492656][7b5c] DestroyPipelineAndFilters
leave. expire time = 0 ms
[002:323] [2024-12-13 03:09:48 +0000.492686][7b5c] AppDeviceManagerStopMic
[002:324] [2024-12-13 03:09:48 +000[000:090] [2024-12-25 05:59:06 +0000.995705]
[6cf9] Log to file:/storage/emulated/0/voip-data/[Link]/[Link] start
time:2024-12-25 05:59:06 +0000
[000:090] [2024-12-25 05:59:06 +0000.995806][6cf9] set AppID=50011 old AppID=-1
[000:090] [2024-12-25 05:59:06 +0000.995835][6cf9] Init the android object with
jvm:0xb400006fdd621380 env:0x6fbfdda8c0 context:0x6f6928f2e8
[000:090] [2024-12-25 05:59:06 +0000.995883][6cf9] SetAndroidMediaCodecObjects
time:1590208252 enter.
[000:090] [2024-12-25 05:59:06 +0000.995930][6cf9] SetAndroidMediaCodecObjects
leave. expire time = 0 ms
[000:090] [2024-12-25 05:59:06 +0000.995980][6cf9] SetAndroidMediaCodecObjects
time:1590208252 enter.
[000:090] [2024-12-25 05:59:06 +0000.996021][6cf9] SetAndroidMediaCodecObjects:
SetAndroidMediaCodecObjects:: jvm :0xb400006fdd621380
[000:090] [2024-12-25 05:59:06 +0000.996065][6cf9] SetAndroidMediaCodecObjects:
SetAndroidMediaCodecObjects success g_jvm_:0xb400006fdd621380 address:0x6f1d912760
[000:090] [2024-12-25 05:59:06 +0000.996105][6cf9] SetAndroidMediaCodecObjects:
SetAndroidMediaCodecObjects success g_jvm_encoder_:0xb400006fdd621380
address:0x6f1d912760
[000:090] [2024-12-25 05:59:06 +0000.996148][6cf9] SetAndroidMediaCodecObjects
leave. expire time = 0 ms
[000:090] [2024-12-25 05:59:06 +0000.996203][6cf9] Set the android objects with
jvm:0xb400006fdd621380 env:0x6fbfdda8c0 context:0x6f6928f2e8
[000:091] [2024-12-25 05:59:06 +0000.997277][6cf9] audio jni debug :manager
SetAndroidAudioDeviceObjects env:0x6fbfdda8c0
[000:091] [2024-12-25 05:59:06 +0000.997334][6cf9] SystemUtil Init done
[000:094] [2024-12-25 05:59:07 +0000.184][6cf9]
Java_com_xiaomi_recordmediaprocess_MediaEffectCamera_ConstructMediaEffectCameraJni:
[000:095] [2024-12-25 05:59:07 +0000.1376][6cf9] MediaFilterCamera
[000:095] [2024-12-25 05:59:07 +0000.1448][6cf9] RecordingSessionInternalSimple:
Create session internal:720 X 1280 fps:30
[000:096] [2024-12-25 05:59:07 +0000.1649][6cf9] createSessionInternal: create
session with video size:720 X 1280 fps:30 bitrate:14680064
[000:096] [2024-12-25 05:59:07 +0000.1686][310] Error([Link]): Set the
pthread name failed with error:34 name:Thread 0x0x6f4277ecc0
[000:096] [2024-12-25 05:59:07 +0000.1705][6cf9] Recording session using default
bitrate support by app:14680064
[000:096] [2024-12-25 05:59:07 +0000.2013][310] setAudioChannelCount_w:
RecordingSessionInternalSimple:set the audio channel count:2
[000:096] [2024-12-25 05:59:07 +0000.2114][6cf9] setAudioSampleRate:
RecordingSessionInternalSimple:set the audio bitrate:44100
[000:097] [2024-12-25 05:59:07 +0000.2781][6cf9] Error([Link]): Open the file
failed. error:2
[000:097] [2024-12-25 05:59:07 +0000.2827][6cf9]
Error(key_value_pair_store.cc:130): load the data failed from: voip_config.ini
[000:097] [2024-12-25 05:59:07 +0000.2870][6cf9] The device model: 220333qag
usingSoftwareAEC value: 0
[000:099] [2024-12-25 05:59:07 +0000.5268][6cf9] Error([Link]): Open the file
failed. error:2
[000:099] [2024-12-25 05:59:07 +0000.5329][6cf9]
Error(key_value_pair_store.cc:130): load the data failed from:
/storage/emulated/0/voip-data/[Link]/voip_config.ini
[000:099] [2024-12-25 05:59:07 +0000.5379][6cf9] The device model: 220333qag
usingHardwareAEC value: 0
[000:099] [2024-12-25 05:59:07 +0000.5415][6cf9] The machine device: 220333qag
usingHardwareAEC value: 0
[000:099] [2024-12-25 05:59:07 +0000.5452][6cf9] Using Default AEC type: software
AEC
[000:101] [2024-12-25 05:59:07 +0000.6574][6cf9] The device model: 220333qag enum
value: 0
[000:101] [2024-12-25 05:59:07 +0000.7164][6cf9] GetMachineModel is 220333QAG
[000:101] [2024-12-25 05:59:07 +0000.7234][6cf9] GetMachineInfo: 220333QAG
[000:101] [2024-12-25 05:59:07 +0000.7289][6cf9] Construct BeautifyReader begin...
[000:101] [2024-12-25 05:59:07 +0000.7329][6cf9] dumpStickerRgba:0 dumpStickerYuv:0
[000:101] [2024-12-25 05:59:07 +0000.7363][6cf9] Construct BeautifyReader done.
[000:106] [2024-12-25 05:59:07 +0000.11950][6cf9] AppDeviceManagerStartCamera::The
result of start thread is: 1 micOn:0
[000:106] [2024-12-25 05:59:07 +0000.11976][314] Error([Link]): Set the
pthread name failed with error:34 name:Thread 0x0x6f425f7aa0
[000:106] [2024-12-25 05:59:07 +0000.12035][6cf9] AppDeviceManager telnet server
for statistics started......
[000:106] [2024-12-25 05:59:07 +0000.12470][6cf9] CpuOverloadDetect time:1590208268
enter.
[000:107] [2024-12-25 05:59:07 +0000.12565][6cf9] CpuOverloadDetect leave. expire
time = 1 ms
[000:107] [2024-12-25 05:59:07 +0000.12592][315] Error([Link]): Set the
pthread name failed with error:34 name:Thread 0x0x6fcb6b5400
[000:107] [2024-12-25 05:59:07 +0000.13287][6cf9] AppDeviceMana GetOpenslVoiceMode
before get setting: 1
[000:107] [2024-12-25 05:59:07 +0000.13328][6cf9] AppDeviceMana GetOpenslVoiceMode
after get setting: 1
[000:115] [2024-12-25 05:59:07 +0000.20774][6cf9] AudioManagerAndroid
getProperty:[Link].OUTPUT_SAMPLE_RATE
[000:115] [2024-12-25 05:59:07 +0000.21182][6cf9] AudioManagerAndroid
getProperty:[Link].OUTPUT_FRAMES_PER_BUFFER
[000:116] [2024-12-25 05:59:07 +0000.21801][6cf9] CreatePlatformSpecificObjects:
[000:116] [2024-12-25 05:59:07 +0000.21846][6cf9] audio device use opensle input
and opensl output
[000:116] [2024-12-25 05:59:07 +0000.21904][6cf9] Create OpenSLES output module
with java VM support.
[000:116] [2024-12-25 05:59:07 +0000.22074][6cf9] AudioManagerAndroid
getProperty:[Link].OUTPUT_SAMPLE_RATE
[000:116] [2024-12-25 05:59:07 +0000.22225][6cf9] AudioManagerAndroid
getProperty:[Link].OUTPUT_FRAMES_PER_BUFFER
[000:116] [2024-12-25 05:59:07 +0000.22403][6cf9] Create OpenSLES output module
with buffer num:1
[000:117] [2024-12-25 05:59:07 +0000.22566][6cf9] AudioManagerAndroid
getProperty:[Link].OUTPUT_SAMPLE_RATE
[000:117] [2024-12-25 05:59:07 +0000.22702][6cf9] AudioManagerAndroid
getProperty:[Link].OUTPUT_FRAMES_PER_BUFFER
[000:117] [2024-12-25 05:59:07 +0000.22859][6cf9] Create OpenSLES input module with
java VM support.
[000:117] [2024-12-25 05:59:07 +0000.22901][6cf9] Create OpenSLES input module with
buffer num:1
[000:117] [2024-12-25 05:59:07 +0000.22975][6cf9] Error([Link]): Init the
output and input for audio device template.
[000:117] [2024-12-25 05:59:07 +0000.23016][6cf9] Init the output device.
[000:117] [2024-12-25 05:59:07 +0000.23052][6cf9] Init the opensl input.
[000:117] [2024-12-25 05:59:07 +0000.23096][6cf9] AppDeviceManager get setting
samplerate: 0
[000:117] [2024-12-25 05:59:07 +0000.23596][6cf9] The device model: 220333qag enum
value: 0
[000:118] [2024-12-25 05:59:07 +0000.24278][6cf9] The device model: 220333qag enum
value: 0
[000:118] [2024-12-25 05:59:07 +0000.24320][6cf9] Set the sample rate to be:48000
[000:118] [2024-12-25 05:59:07 +0000.24359][6cf9] Enable the recording stereo:0
[000:118] [2024-12-25 05:59:07 +0000.24402][6cf9] Set the playout as stereo:1
[000:118] [2024-12-25 05:59:07 +0000.24442][6cf9] Init the microphone.
[000:119] [2024-12-25 05:59:07 +0000.24915][6cf9] Update the recording sample rate
to be: 48000
[000:119] [2024-12-25 05:59:07 +0000.24971][6cf9] Init the speaker.
[000:119] [2024-12-25 05:59:07 +0000.25015][6cf9] Low latency buffer size:144 low
sample rate:48000
[000:119] [2024-12-25 05:59:07 +0000.25317][6cf9] Using 1 x 10ms for an audio
frame.
[000:123] [2024-12-25 05:59:07 +0000.29284][6cf9] Error(splitting_filter.cc:26):
Splitting filter only support two or three bands now.
[000:123] [2024-12-25 05:59:07 +0000.29462][6cf9] Error(splitting_filter.cc:26):
Splitting filter only support two or three bands now.
[000:123] [2024-12-25 05:59:07 +0000.29518][6cf9] Error(splitting_filter.cc:26):
Splitting filter only support two or three bands now.
[000:129] [2024-12-25 05:59:07 +0000.34695][6cf9] The device model:220333qag
[000:129] [2024-12-25 05:59:07 +0000.34790][6cf9] speaker output factor:100
defaultFactor: 100
[000:129] [2024-12-25 05:59:07 +0000.34829][6cf9] headset output factor:100
defaultFactor: 100
[000:129] [2024-12-25 05:59:07 +0000.35295][6cf9] AppDeviceManagerStart finished.
[000:129] [2024-12-25 05:59:07 +0000.35361][6cf9] AppDeviceManagerStartMic::mic
status is off
[000:129] [2024-12-25 05:59:07 +0000.35422][6cf9] AppDeviceManagerStartMic update
aec type: 2
[000:129] [2024-12-25 05:59:07 +0000.35457][6cf9] AppDeviceManagerStartMic update
voiceChangeMode: 4
[000:129] [2024-12-25 05:59:07 +0000.35502][6cf9]
AudioDeviceDataHandler::setVoiceChangeMode, mode : 4
[000:129] [2024-12-25 05:59:07 +0000.35579][6cf9]
AudioDeviceDataHandler::StartMicProcess
[000:130] [2024-12-25 05:59:07 +0000.35737][6cf9] Try to start webrtc recording
device.
[000:130] [2024-12-25 05:59:07 +0000.35778][6cf9] StartRecording. threadID:27897
[000:130] [2024-12-25 05:59:07 +0000.35768][317] Error([Link]): Set the
pthread name failed with error:34 name:AudioDeviceDataHandler gapProcessThread
[000:130] [2024-12-25 05:59:07 +0000.35876][317] haveEnoughProcessedData
[Link]: 0
[000:130] [2024-12-25 05:59:07 +0000.36185][6cf9] The machine model:220333QAG
[000:130] [2024-12-25 05:59:07 +0000.36247][6cf9] default mode: Set the recording
mode to voice communication to enable HW AEC .
[000:130] [2024-12-25 05:59:07 +0000.36284][6cf9] Set the recording mode before
getSetting: 4
[000:130] [2024-12-25 05:59:07 +0000.36329][6cf9] Set the recording mode after
getSetting: 1
[000:152] [2024-12-25 05:59:07 +0000.58343][6cf9] StartRecording finished.
[000:152] [2024-12-25 05:59:07 +0000.58428][6cf9] audio: start the audio mic
checker timer.
[000:153] [2024-12-25 05:59:07 +0000.59024][6cf9] machine model :redmi
[000:153] [2024-12-25 05:59:07 +0000.59088][6cf9] Support this machine model :redmi
[000:159] [2024-12-25 05:59:07 +0000.65066][6cf9] global inited! current sdk
version: 12-14-d8558ab
[000:226] [2024-12-25 05:59:07 +0000.132238][319] webrtc device:Handle the data
from samplesPerSec recording sample rate:48000 nSamples:480 nBytesPerSample:#
nChannels:#
[000:226] [2024-12-25 05:59:07 +0000.132347][319] _deviceSampleRate:48000
[000:227] [2024-12-25 05:59:07 +0000.133162][317] Run AGC when audioType = 0
[000:227] [2024-12-25 05:59:07 +0000.133248][317]
AudioDeviceDataHandler::MixAndSendOutFrame
[000:592] [2024-12-25 05:59:07 +0000.497824][6eb3]
Java_com_xiaomi_recordmediaprocess_OpenGlRender_SetCurrentGLContextJni:
[000:592] [2024-12-25 05:59:07 +0000.498028][311] MediaFilterCamera, recording file
context:0x6fbfcf5180 input texture:8
[000:592] [2024-12-25 05:59:07 +0000.498090][311] GLESContext:
[000:592] [2024-12-25 05:59:07 +0000.498222][311] The result of eglGetDisplay is:
0x1
[000:602] [2024-12-25 05:59:07 +0000.508486][311] The result of creation:
0x6f328d3700
[000:603] [2024-12-25 05:59:07 +0000.508665][311] The result of
eglCreatePbufferSurface is: 0x6f328d3800
[000:603] [2024-12-25 05:59:07 +0000.508809][6eb3]
Java_com_xiaomi_recordmediaprocess_OpenGlRender_SetCurrentGLContextJni:
g_eglcontext: 0x6fbfcf5180 input_texture: 8
[001:865] [2024-12-25 05:59:08 +0000.771015][317] haveEnoughProcessedData
[Link]: 10
[002:229] [2024-12-25 05:59:09 +0000.134753][317] Run AGC when audioType = 0
[003:575] [2024-12-25 05:59:10 +0000.480801][317] haveEnoughProcessedData
[Link]: 0
[004:154] [2024-12-25 05:59:11 +0000.59696][30b] monitorTime:4002totalDuration:3930
[004:229] [2024-12-25 05:59:11 +0000.135237][317] Run AGC when audioType = 0
[004:229] [2024-12-25 05:59:11 +0000.135396][317]
AudioDeviceDataHandler::MixAndSendOutFrame
[005:284] [2024-12-25 05:59:12 +0000.190157][317] haveEnoughProcessedData
[Link]: 0
[005:747] [2024-12-25 05:59:12 +0000.653227][6cf9]
Java_com_xiaomi_recordmediaprocess_MediaEffectCamera_DestructMediaEffectCameraJni:
[005:747] [2024-12-25 05:59:12 +0000.653492][6cf9] ~MediaFilterCamera
time:1590213909 enter.
[005:748] [2024-12-25 05:59:12 +0000.653576][6cf9] StopPullFrameAndWriteMp4
time:1590213910 enter.
[005:750] [2024-12-25 05:59:12 +0000.655888][310] stop recording
[005:750] [2024-12-25 05:59:12 +0000.655991][310] we have stopped recording before
[005:750] [2024-12-25 05:59:12 +0000.656078][6cf9] StopPullFrameAndWriteMp4 leave.
expire time = 2 ms
[005:751] [2024-12-25 05:59:12 +0000.657411][6cf9] DestroyPipelineAndFilters
time:1590213913 enter.
[005:751] [2024-12-25 05:59:12 +0000.657506][6cf9] DestroyPipelineAndFilters
leave. expire time = 0 ms
[005:752] [2024-12-25 05:59:12 +0000.657550][6cf9] AppDeviceManagerStopMic
[005:752] [2024-12-25 05:59:12 +0000.657626][6cf9] AppDeviceManagerStopMic::mic
status is on
[005:752] [2024-12-25 05:59:12 +0000.657681][6cf9] Try to stop webrtc device.
[005:752] [2024-12-25 05:59:12 +0000.657715][6cf9] Set record state to
[Link]
[005:788] [2024-12-25 05:59:12 +0000.693925][6cf9] Try to destory the
[Link]
[005:988] [2024-12-25 05:59:12 +0000.894121][6cf9] DestroyAudioRecorder:
[005:988] [2024-12-25 05:59:12 +0000.894293][6cf9] Cleanup the buffer queue in the
recorder.
[005:988] [2024-12-25 05:59:12 +0000.894329][6cf9] Destroy the recorder.
[005:993] [2024-12-25 05:59:12 +0000.898813][6cf9] StopRecording finished.
[005:993] [2024-12-25 05:59:12 +0000.898986][6cf9] The stop recording success.
[005:993] [2024-12-25 05:59:12 +0000.899030][6cf9]
AudioDeviceDataHandler::StopMicProcess
[005:994] [2024-12-25 05:59:12 +0000.899724][6cf9] AppDeviceManager stop.
[005:994] [2024-12-25 05:59:12 +0000.899875][6cf9] Rlease the webrtc device object.
[005:995] [2024-12-25 05:59:12 +0000.900772][6cf9] OpenSlesInput destruct.
[005:995] [2024-12-25 05:59:12 +0000.900867][6cf9] OpenSlesOutput destruct.
[005:996] [2024-12-25 05:59:12 +0000.901701][6cf9] EventDispatchServerScope
destruct
[005:996] [2024-12-25 05:59:12 +0000.901809][6cf9]
Warning([Link]): PhysicalSocketServer destruct
[005:996] [2024-12-25 05:59:12 +0000.901920][6cf9] ~AudioDeviceDataHandler
[005:997] [2024-12-25 05:59:12 +0000.903419][6cf9] AppDeviceManagerDestruct.
[005:998] [2024-12-25 05:59:12 +0000.903598][6cf9] ~AppDeviceManager:
[005:998] [2024-12-25 05:59:12 +0000.903755][6cf9] ~CpuOverloadDetect
time:1590214160 enter.
[005:999] [2024-12-25 05:59:12 +0000.905239][6cf9] ~CpuOverloadDetect leave.
expire time = 1 ms
[006:002] [2024-12-25 05:59:12 +0000.908152][6cf9] Destruct BeautifyReader begin...
[006:002] [2024-12-25 05:59:12 +0000.908298][6cf9] Destruct BeautifyReader done.
[006:002] [2024-12-25 05:59:12 +0000.908371][6cf9] ~MediaFilterCamera leave.
expire time = 255 ms
[006:003] [2024-12-25 05:59:12 +0000.908664][6cf9] ~GLESContext:
[006:004] [2024-12-25 05:59:12 +0000.910099][6cf9] GLESContext destruct finish.
[006:004] [2024-12-25 05:59:12 +0000.910268][6cf9] ~RecordingSessionInternalSimple:
RecordingSessionInternalSimple::~RecordingSessionInternalSimple
[006:006] [2024-12-25 05:59:12 +0000.911669][6cf9] global uninited!
[006:008] [2024-12-25 05:59:12 +0000.913770][6cf9] clear AppID 50011
[006:008] [2024-12-25 05:59:12 +0000.914007][6cf9] UnRegister JVM for Xplatform
util
[006:008] [2024-12-25 05:59:12 +0000.914091][6cf9] Dispose::unregister webrtc video
engine
[006:008] [2024-12-25 05:59:12 +0000.914153][6cf9] Init the android object with
jvm:0x0 env:0x0 context:0x0
[006:008] [2024-12-25 05:59:12 +0000.914230][6cf9] SetAndroidMediaCodecObjects
time:1590214170 enter.
[006:008] [2024-12-25 05:59:12 +0000.914291][6cf9] ClearAndroidMediaCodecObjects
time:1590214170 enter.
[006:008] [2024-12-25 05:59:12 +0000.914358][6cf9] ClearAndroidMediaCodecObjects
leave. expire time = 0 ms
[006:008] [2024-12-25 05:59:12 +0000.914414][6cf9] SetAndroidMediaCodecObjects
leave. expire time = 0 ms
[006:008] [2024-12-25 05:59:12 +0000.914467][6cf9] SetAndroidMediaCodecObjects
time:1590214170 enter.
[006:008] [2024-12-25 05:59:12 +0000.914522][6cf9] SetAndroidMediaCodecObjects:
SetAndroidMediaCodecObjects:: jvm :0x0
[006:009] [2024-12-25 05:59:12 +0000.914586][6cf9] ClearAndroidMediaCodecObjects
time:1590214171 enter.
[006:009] [2024-12-25 05:59:12 +0000.914643][6cf9] ClearAndroidMediaCodecObjects
leave. expire time = 0 ms
[006:009] [2024-12-25 05:59:12 +0000.914695][6cf9] SetAndroidMediaCodecObjects:
SetAndroidMediaCodecObjects failed
[006:009] [2024-12-25 05:59:12 +0000.914746][6cf9] SetAndroidMediaCodecObjects
leave. expire time = 1 ms
[006:009] [2024-12-25 05:59:12 +0000.914877][6cf9] Dispose::unregister webrtc voice
engine
[006:009] [2024-12-25 05:59:12 +0000.914951][6cf9] Set the android objects with
jvm:0x0 env:0x0 context:0x0
[006:009] [2024-12-25 05:59:12 +0000.915076][6cf9] SystemUtil UnInit done
[006:290] [2024-12-25 05:59:13 +0000.196232][6cf9] Register JVM for xplatform util
[006:297] [2024-12-25 05:59:13 +0000.203351][6cf9] Log to
file:/storage/emulated/0/voip-data/[Link]/[Link] start time:2024-12-
25 05:59:13 +0000
[006:297] [2024-12-25 05:59:13 +0000.203405][6cf9] set AppID=50011 old AppID=-1
[006:297] [2024-12-25 05:59:13 +0000.203443][6cf9] Init the android object with
jvm:0xb400006fdd621380 env:0x6fbfdda8c0 context:0x6f6928f2e8
[006:297] [2024-12-25 05:59:13 +0000.203484][6cf9] SetAndroidMediaCodecObjects
time:1590214459 enter.
[006:297] [2024-12-25 05:59:13 +0000.203524][6cf9] SetAndroidMediaCodecObjects
leave. expire time = 0 ms
[006:298] [2024-12-25 05:59:13 +0000.203769][6cf9] SetAndroidMediaCodecObjects
time:1590214460 enter.
[006:298] [2024-12-25 05:59:13 +0000.203811][6cf9] SetAndroidMediaCodecObjects:
SetAndroidMediaCodecObjects:: jvm :0xb400006fdd621380
[006:298] [2024-12-25 05:59:13 +0000.203855][6cf9] SetAndroidMediaCodecObjects:
SetAndroidMediaCodecObjects success g_jvm_:0xb400006fdd621380 address:0x6f1d912760
[006:298] [2024-12-25 05:59:13 +0000.203896][6cf9] SetAndroidMediaCodecObjects:
SetAndroidMediaCodecObjects success g_jvm_encoder_:0xb400006fdd621380
address:0x6f1d912760
[006:298] [2024-12-25 05:59:13 +0000.203938][6cf9] SetAndroidMediaCodecObjects
leave. expire time = 0 ms
[006:298] [2024-12-25 05:59:13 +0000.203981][6cf9] Set the android objects with
jvm:0xb400006fdd621380 env:0x6fbfdda8c0 context:0x6f6928f2e8
[006:298] [2024-12-25 05:59:13 +0000.204023][6cf9] audio jni debug :manager
SetAndroidAudioDeviceObjects env:0x6fbfdda8c0
[006:298] [2024-12-25 05:59:13 +0000.204069][6cf9] SystemUtil Init done
[006:298] [2024-12-25 05:59:13 +0000.204344][6cf9]
Java_com_xiaomi_recordmediaprocess_MediaEffectCamera_ConstructMediaEffectCameraJni:
[006:298] [2024-12-25 05:59:13 +0000.204467][6cf9] MediaFilterCamera
[006:298] [2024-12-25 05:59:13 +0000.204513][6cf9] RecordingSessionInternalSimple:
Create session internal:720 X 1280 fps:30
[006:299] [2024-12-25 05:59:13 +0000.204633][6cf9] createSessionInternal: create
session with video size:720 X 1280 fps:30 bitrate:14680064
[006:299] [2024-12-25 05:59:13 +0000.204682][6cf9] Recording session using default
bitrate support by app:14680064
[006:299] [2024-12-25 05:59:13 +0000.204673][4be] Error([Link]): Set the
pthread name failed with error:34 name:Thread 0x0x6f4277ecc0
[006:299] [2024-12-25 05:59:13 +0000.204771][4be] setAudioChannelCount_w:
RecordingSessionInternalSimple:set the audio channel count:2
[006:299] [2024-12-25 05:59:13 +0000.204854][6cf9] setAudioSampleRate:
RecordingSessionInternalSimple:set the audio bitrate:44100
[006:300] [2024-12-25 05:59:13 +0000.205688][6cf9] Error([Link]): Open the file
failed. error:2
[006:300] [2024-12-25 05:59:13 +0000.205761][6cf9]
Error(key_value_pair_store.cc:130): load the data failed from: voip_config.ini
[006:300] [2024-12-25 05:59:13 +0000.205800][6cf9] The device model: 220333qag
usingSoftwareAEC value: 0
[006:302] [2024-12-25 05:59:13 +0000.208020][6cf9] Error([Link]): Open the file
failed. error:2
[006:302] [2024-12-25 05:59:13 +0000.208081][6cf9]
Error(key_value_pair_store.cc:130): load the data failed from:
/storage/emulated/0/voip-data/[Link]/voip_config.ini
[006:302] [2024-12-25 05:59:13 +0000.208128][6cf9] The device model: 220333qag
usingHardwareAEC value: 0
[006:302] [2024-12-25 05:59:13 +0000.208165][6cf9] The machine device: 220333qag
usingHardwareAEC value: 0
[006:302] [2024-12-25 05:59:13 +0000.208206][6cf9] Using Default AEC type: software
AEC
[006:303] [2024-12-25 05:59:13 +0000.208845][6cf9] The device model: 220333qag enum
value: 0
[006:303] [2024-12-25 05:59:13 +0000.209514][6cf9] GetMachineModel is 220333QAG
[006:304] [2024-12-25 05:59:13 +0000.209585][6cf9] GetMachineInfo: 220333QAG
[006:304] [2024-12-25 05:59:13 +0000.209615][6cf9] Construct BeautifyReader
begin...
[006:304] [2024-12-25 05:59:13 +0000.209666][6cf9] dumpStickerRgba:0
dumpStickerYuv:0
[006:304] [2024-12-25 05:59:13 +0000.209710][6cf9] Construct BeautifyReader done.
[006:306] [2024-12-25 05:59:13 +0000.212394][6cf9] AppDeviceManagerStartCamera::The
result of start thread is: 1 micOn:0
[006:306] [2024-12-25 05:59:13 +0000.212430][4c1] Error([Link]): Set the
pthread name failed with error:34 name:Thread 0x0x6f425f73a0
[006:306] [2024-12-25 05:59:13 +0000.212481][6cf9] AppDeviceManager telnet server
for statistics started......
[006:307] [2024-12-25 05:59:13 +0000.212872][6cf9] CpuOverloadDetect
time:1590214469 enter.
[006:307] [2024-12-25 05:59:13 +0000.212979][6cf9] CpuOverloadDetect leave. expire
time = 0 ms
[006:307] [2024-12-25 05:59:13 +0000.213006][4c2] Error([Link]): Set the
pthread name failed with error:34 name:Thread 0x0x6fcb6b5400
[006:308] [2024-12-25 05:59:13 +0000.213689][6cf9] AppDeviceMana
GetOpenslVoiceMode before get setting: 1
[006:308] [2024-12-25 05:59:13 +0000.213732][6cf9] AppDeviceMana
GetOpenslVoiceMode after get setting: 1
[006:308] [2024-12-25 05:59:13 +0000.213996][6cf9] AudioManagerAndroid
getProperty:[Link].OUTPUT_SAMPLE_RATE
[006:308] [2024-12-25 05:59:13 +0000.214244][6cf9] AudioManagerAndroid
getProperty:[Link].OUTPUT_FRAMES_PER_BUFFER
[006:308] [2024-12-25 05:59:13 +0000.214477][6cf9] CreatePlatformSpecificObjects:
[006:308] [2024-12-25 05:59:13 +0000.214523][6cf9] audio device use opensle input
and opensl output
[006:309] [2024-12-25 05:59:13 +0000.214577][6cf9] Create OpenSLES output module
with java VM support.
[006:309] [2024-12-25 05:59:13 +0000.214735][6cf9] AudioManagerAndroid
getProperty:[Link].OUTPUT_SAMPLE_RATE
[006:309] [2024-12-25 05:59:13 +0000.214892][6cf9] AudioManagerAndroid
getProperty:[Link].OUTPUT_FRAMES_PER_BUFFER
[006:309] [2024-12-25 05:59:13 +0000.215095][6cf9] Create OpenSLES output module
with buffer num:1
[006:309] [2024-12-25 05:59:13 +0000.215237][6cf9] AudioManagerAndroid
getProperty:[Link].OUTPUT_SAMPLE_RATE
[006:309] [2024-12-25 05:59:13 +0000.215372][6cf9] AudioManagerAndroid
getProperty:[Link].OUTPUT_FRAMES_PER_BUFFER
[006:310] [2024-12-25 05:59:13 +0000.215644][6cf9] Create OpenSLES input module
with java VM support.
[006:310] [2024-12-25 05:59:13 +0000.215696][6cf9] Create OpenSLES input module
with buffer num:1
[006:310] [2024-12-25 05:59:13 +0000.215745][6cf9] Error([Link]): Init the
output and input for audio device template.
[006:310] [2024-12-25 05:59:13 +0000.215783][6cf9] Init the output device.
[006:310] [2024-12-25 05:59:13 +0000.215825][6cf9] Init the opensl input.
[006:310] [2024-12-25 05:59:13 +0000.215873][6cf9] AppDeviceManager get setting
samplerate: 0
[006:310] [2024-12-25 05:59:13 +0000.216306][6cf9] The device model: 220333qag enum
value: 0
[006:311] [2024-12-25 05:59:13 +0000.216963][6cf9] The device model: 220333qag enum
value: 0
[006:311] [2024-12-25 05:59:13 +0000.217002][6cf9] Set the sample rate to be:48000
[006:311] [2024-12-25 05:59:13 +0000.217045][6cf9] Enable the recording stereo:0
[006:311] [2024-12-25 05:59:13 +0000.217086][6cf9] Set the playout as stereo:1
[006:311] [2024-12-25 05:59:13 +0000.217127][6cf9] Init the microphone.
[006:311] [2024-12-25 05:59:13 +0000.217417][6cf9] Update the recording sample rate
to be: 48000
[006:311] [2024-12-25 05:59:13 +0000.217459][6cf9] Init the speaker.
[006:311] [2024-12-25 05:59:13 +0000.217494][6cf9] Low latency buffer size:144 low
sample rate:48000
[006:312] [2024-12-25 05:59:13 +0000.217672][6cf9] Using 1 x 10ms for an audio
frame.
[006:314] [2024-12-25 05:59:13 +0000.219842][6cf9] Error(splitting_filter.cc:26):
Splitting filter only support two or three bands now.
[006:314] [2024-12-25 05:59:13 +0000.219977][6cf9] Error(splitting_filter.cc:26):
Splitting filter only support two or three bands now.
[006:314] [2024-12-25 05:59:13 +0000.220036][6cf9] Error(splitting_filter.cc:26):
Splitting filter only support two or three bands now.
[006:319] [2024-12-25 05:59:13 +0000.224556][6cf9] The device model:220333qag
[006:319] [2024-12-25 05:59:13 +0000.224649][6cf9] speaker output factor:100
defaultFactor: 100
[006:319] [2024-12-25 05:59:13 +0000.224689][6cf9] headset output factor:100
defaultFactor: 100
[006:319] [2024-12-25 05:59:13 +0000.225117][6cf9] AppDeviceManagerStart finished.
[006:319] [2024-12-25 05:59:13 +0000.225164][6cf9] AppDeviceManagerStartMic::mic
status is off
[006:319] [2024-12-25 05:59:13 +0000.225230][6cf9] AppDeviceManagerStartMic update
aec type: 2
[006:319] [2024-12-25 05:59:13 +0000.225269][6cf9] AppDeviceManagerStartMic update
voiceChangeMode: 4
[006:319] [2024-12-25 05:59:13 +0000.225318][6cf9]
AudioDeviceDataHandler::setVoiceChangeMode, mode : 4
[006:319] [2024-12-25 05:59:13 +0000.225367][6cf9]
AudioDeviceDataHandler::StartMicProcess
[006:319] [2024-12-25 05:59:13 +0000.225517][6cf9] Try to start webrtc recording
device.
[006:320] [2024-12-25 05:59:13 +0000.225563][6cf9] StartRecording. threadID:27897
[006:320] [2024-12-25 05:59:13 +0000.225644][6cf9] default mode: Set the recording
mode to voice communication to enable HW AEC .
[006:320] [2024-12-25 05:59:13 +0000.225684][6cf9] Set the recording mode before
getSetting: 4
[006:320] [2024-12-25 05:59:13 +0000.225735][6cf9] Set the recording mode after
getSetting: 1
[006:320] [2024-12-25 05:59:13 +0000.225939][4c3] Error([Link]): Set the
pthread name failed with error:34 name:AudioDeviceDataHandler gapProcessThread
[006:335] [2024-12-25 05:59:13 +0000.240774][6cf9] StartRecording finished.
[006:335] [2024-12-25 05:59:13 +0000.240846][6cf9] audio: start the audio mic
checker timer.
[006:335] [2024-12-25 05:59:13 +0000.241380][6cf9] machine model :redmi
[006:335] [2024-12-25 05:59:13 +0000.241447][6cf9] Support this machine
model :redmi
[006:335] [2024-12-25 05:59:13 +0000.241479][6cf9] global inited! current sdk
version: 12-14-d8558ab
[006:799] [2024-12-25 05:59:13 +0000.705076][6eb3]
Java_com_xiaomi_recordmediaprocess_OpenGlRender_SetCurrentGLContextJni:
[006:799] [2024-12-25 05:59:13 +0000.705251][4bf] MediaFilterCamera, recording file
context:0x6fbfcf5180 input texture:14
[006:799] [2024-12-25 05:59:13 +0000.705318][4bf] GLESContext:
[006:799] [2024-12-25 05:59:13 +0000.705386][4bf] The result of eglGetDisplay is:
0x1
[006:800] [2024-12-25 05:59:13 +0000.706523][4bf] The result of creation:
0x6f2f958900
[006:801] [2024-12-25 05:59:13 +0000.706661][4bf] The result of
eglCreatePbufferSurface is: 0x6f2f958b00
[006:801] [2024-12-25 05:59:13 +0000.707060][6eb3]
Java_com_xiaomi_recordmediaprocess_OpenGlRender_SetCurrentGLContextJni:
g_eglcontext: 0x6fbfcf5180 input_texture: 14
[006:865] [2024-12-25 05:59:13 +0000.771380][4c3] Run AGC when audioType = 0
[007:414] [2024-12-25 05:59:14 +0000.319922][4c3] haveEnoughProcessedData
[Link]: 0
[008:866] [2024-12-25 05:59:15 +0000.772184][4c3] Run AGC when audioType = 0
[008:866] [2024-12-25 05:59:15 +0000.772353][4c3]
AudioDeviceDataHandler::MixAndSendOutFrame
[009:129] [2024-12-25 05:59:16 +0000.34975][4c3] haveEnoughProcessedData
[Link]: 10
[010:338] [2024-12-25 05:59:17 +0000.243719][30b]
monitorTime:4003totalDuration:3950
[010:844] [2024-12-25 05:59:17 +0000.750596][4c3] haveEnoughProcessedData
[Link]: 0
[010:865] [2024-12-25 05:59:17 +0000.771351][4c6] webrtc device:Handle the data
from samplesPerSec recording sample rate:48000 nSamples:480 nBytesPerSample:#
nChannels:#
[010:866] [2024-12-25 05:59:17 +0000.771632][4c6] _deviceSampleRate:48000
[010:871] [2024-12-25 05:59:17 +0000.776748][4c3] Run AGC when audioType = 0
[012:579] [2024-12-25 05:59:19 +0000.485536][4c3] haveEnoughProcessedData
[Link]: 10
[012:867] [2024-12-25 05:59:19 +0000.772913][4c3] Run AGC when audioType = 0
[012:867] [2024-12-25 05:59:19 +0000.773172][4c3]
AudioDeviceDataHandler::MixAndSendOutFrame
[014:306] [2024-12-25 05:59:21 +0000.212111][4c3] haveEnoughProcessedData
[Link]: 10
[014:868] [2024-12-25 05:59:21 +0000.774207][4c3] Run AGC when audioType = 0
[016:027] [2024-12-25 05:59:22 +0000.933541][4c3] haveEnoughProcessedData
[Link]: 0
[016:866] [2024-12-25 05:59:23 +0000.772090][4c3] Run AGC when audioType = 0
[016:866] [2024-12-25 05:59:23 +0000.772351][4c3]
AudioDeviceDataHandler::MixAndSendOutFrame
[017:751] [2024-12-25 05:59:24 +0000.656579][4c3] haveEnoughProcessedData
[Link]: 0
[018:865] [2024-12-25 05:59:25 +0000.771074][4c3] Run AGC when audioType = 0
[019:469] [2024-12-25 05:59:26 +0000.374831][4c3] haveEnoughProcessedData
[Link]: 0
[020:864] [2024-12-25 05:59:27 +0000.769985][4c6] webrtc device:Handle the data
from samplesPerSec recording sample rate:48000 nSamples:480 nBytesPerSample:#
nChannels:#
[020:864] [2024-12-25 05:59:27 +0000.770130][4c6] _deviceSampleRate:48000
[020:865] [2024-12-25 05:59:27 +0000.771438][4c3] Run AGC when audioType = 0
[020:866] [2024-12-25 05:59:27 +0000.771594][4c3]
AudioDeviceDataHandler::MixAndSendOutFrame
[021:188] [2024-12-25 05:59:28 +0000.94070][4c3] haveEnoughProcessedData
[Link]: 10
[022:867] [2024-12-25 05:59:29 +0000.773198][4c3] Run AGC when audioType = 0
[022:909] [2024-12-25 05:59:29 +0000.814674][4c3] haveEnoughProcessedData
[Link]: 0
[024:640] [2024-12-25 05:59:31 +0000.546048][4c3] haveEnoughProcessedData
[Link]: 0
[024:867] [2024-12-25 05:59:31 +0000.773499][4c3] Run AGC when audioType = 0
[024:868] [2024-12-25 05:59:31 +0000.773681][4c3]
AudioDeviceDataHandler::MixAndSendOutFrame
[026:359] [2024-12-25 05:59:33 +0000.265112][4c3] haveEnoughProcessedData
[Link]: 0
[026:867] [2024-12-25 05:59:33 +0000.773284][4c3] Run AGC when audioType = 0
[028:078] [2024-12-25 05:59:34 +0000.984039][4c3] haveEnoughProcessedData
[Link]: 0
[028:867] [2024-12-25 05:59:35 +0000.772939][4c3] Run AGC when audioType = 0
[028:867] [2024-12-25 05:59:35 +0000.773186][4c3]
AudioDeviceDataHandler::MixAndSendOutFrame
[029:801] [2024-12-25 05:59:36 +0000.706578][4c3] haveEnoughProcessedData
[Link]: 0
[030:863] [2024-12-25 05:59:37 +0000.769222][4c6] webrtc device:Handle the data
from samplesPerSec recording sample rate:48000 nSamples:480 nBytesPerSample:#
nChannels:#
[030:863] [2024-12-25 05:59:37 +0000.769505][4c6] _deviceSampleRate:48000
[030:866] [2024-12-25 05:59:37 +0000.772188][4c3] Run AGC when audioType = 0
[031:521] [2024-12-25 05:59:38 +0000.426784][4c3] haveEnoughProcessedData
[Link]: 0
[032:868] [2024-12-25 05:59:39 +0000.774301][4c3] Run AGC when audioType = 0
[032:868] [2024-12-25 05:59:39 +0000.774446][4c3]
AudioDeviceDataHandler::MixAndSendOutFrame
[033:250] [2024-12-25 05:59:40 +0000.156390][4c3] haveEnoughProcessedData
[Link]: 10
[034:866] [2024-12-25 05:59:41 +0000.772378][4c3] Run AGC when audioType = 0
[034:976] [2024-12-25 05:59:41 +0000.882474][4c3] haveEnoughProcessedData
[Link]: 10
[036:706] [2024-12-25 05:59:43 +0000.612010][4c3] haveEnoughProcessedData
[Link]: 10
[036:866] [2024-12-25 05:59:43 +0000.771982][4c3] Run AGC when audioType = 0
[036:866] [2024-12-25 05:59:43 +0000.772158][4c3]
AudioDeviceDataHandler::MixAndSendOutFrame
[038:436] [2024-12-25 05:59:45 +0000.341909][4c3] haveEnoughProcessedData
[Link]: 0
[038:869] [2024-12-25 05:59:45 +0000.774999][4c3] Run AGC when audioType = 0
[040:163] [2024-12-25 05:59:47 +0000.69292][4c3] haveEnoughProcessedData
[Link]: 10
[040:865] [2024-12-25 05:59:47 +0000.771261][4c6] webrtc device:Handle the data
from samplesPerSec recording sample rate:48000 nSamples:480 nBytesPerSample:#
nChannels:#
[040:865] [2024-12-25 05:59:47 +0000.771520][4c6] _deviceSampleRate:48000
[040:866] [2024-12-25 05:59:47 +0000.772498][4c3] Run AGC when audioType = 0
[040:867] [2024-12-25 05:59:47 +0000.772747][4c3]
AudioDeviceDataHandler::MixAndSendOutFrame
[041:895] [2024-12-25 05:59:48 +0000.800666][4c3] haveEnoughProcessedData
[Link]: 0
[042:868] [2024-12-25 05:59:49 +0000.774166][4c3] Run AGC when audioType = 0
[043:630] [2024-12-25 05:59:50 +0000.536455][4c3] haveEnoughProcessedData
[Link]: 0
[044:868] [2024-12-25 05:59:51 +0000.773738][4c3] Run AGC when audioType = 0
[044:868] [2024-12-25 05:59:51 +0000.773900][4c3]
AudioDeviceDataHandler::MixAndSendOutFrame
[045:352] [2024-12-25 05:59:52 +0000.257929][4c3] haveEnoughProcessedData
[Link]: 0
[046:866] [2024-12-25 05:59:53 +0000.772189][4c3] Run AGC when audioType = 0
[047:077] [2024-12-25 05:59:53 +0000.983004][4c3] haveEnoughProcessedData
[Link]: 0
[048:797] [2024-12-25 05:59:55 +0000.703457][4c3] haveEnoughProcessedData
[Link]: 0
[048:868] [2024-12-25 05:59:55 +0000.774367][4c3] Run AGC when audioType = 0
[048:869] [2024-12-25 05:59:55 +0000.774612][4c3]
AudioDeviceDataHandler::MixAndSendOutFrame
[050:525] [2024-12-25 05:59:57 +0000.431600][4c3] haveEnoughProcessedData
[Link]: 0
[050:864] [2024-12-25 05:59:57 +0000.770293][4c6] webrtc device:Handle the data
from samplesPerSec recording sample rate:48000 nSamples:480 nBytesPerSample:#
nChannels:#
[050:864] [2024-12-25 05:59:57 +0000.770456][4c6] _deviceSampleRate:48000
[050:868] [2024-12-25 05:59:57 +0000.774404][4c3] Run AGC when audioType = 0
[052:260] [2024-12-25 05:59:59 +0000.166370][4c3] haveEnoughProcessedData
[Link]: 0
[052:867] [2024-12-25 05:59:59 +0000.773380][4c3] Run AGC when audioType = 0
[052:868] [2024-12-25 05:59:59 +0000.774165][4c3]
AudioDeviceDataHandler::MixAndSendOutFrame
[053:988] [2024-12-25 06:00:00 +0000.893717][4c3] haveEnoughProcessedData
[Link]: 10
[054:868] [2024-12-25 06:00:01 +0000.773911][4c3] Run AGC when audioType = 0
[055:710] [2024-12-25 06:00:02 +0000.615679][4c3] haveEnoughProcessedData
[Link]: 0
[056:867] [2024-12-25 06:00:03 +0000.773081][4c3] Run AGC when audioType = 0
[056:867] [2024-12-25 06:00:03 +0000.773369][4c3]
AudioDeviceDataHandler::MixAndSendOutFrame
[057:436] [2024-12-25 06:00:04 +0000.342453][4c3] haveEnoughProcessedData
[Link]: 10
[058:867] [2024-12-25 06:00:05 +0000.772818][4c3] Run AGC when audioType = 0
[059:155] [2024-12-25 06:00:06 +0000.60929][4c3] haveEnoughProcessedData
[Link]: 10
[060:863] [2024-12-25 06:00:07 +0000.769284][4c6] webrtc device:Handle the data
from samplesPerSec recording sample rate:48000 nSamples:480 nBytesPerSample:#
nChannels:#
[060:863] [2024-12-25 06:00:07 +0000.769548][4c6] _deviceSampleRate:48000
[060:867] [2024-12-25 06:00:07 +0000.773228][4c3] Run AGC when audioType = 0
[060:867] [2024-12-25 06:00:07 +0000.773414][4c3]
AudioDeviceDataHandler::MixAndSendOutFrame
[060:873] [2024-12-25 06:00:07 +0000.778744][4c3] haveEnoughProcessedData
[Link]: 0
[062:520] [2024-12-25 06:00:09 +0000.426414][6cf9]
Java_com_xiaomi_recordmediaprocess_MediaEffectCamera_DestructMediaEffectCameraJni:
[062:521] [2024-12-25 06:00:09 +0000.426638][6cf9] ~MediaFilterCamera
time:1590270683 enter.
[062:521] [2024-12-25 06:00:09 +0000.426731][6cf9] StopPullFrameAndWriteMp4
time:1590270683 enter.
[062:521] [2024-12-25 06:00:09 +0000.427286][4be] stop recording
[062:521] [2024-12-25 06:00:09 +0000.427402][4be] we have stopped recording before
[062:521] [2024-12-25 06:00:09 +0000.427480][6cf9] StopPullFrameAndWriteMp4 leave.
expire time = 0 ms
[062:522] [2024-12-25 06:00:09 +0000.428050][6cf9] DestroyPipelineAndFilters
time:1590270684 enter.
[062:522] [2024-12-25 06:00:09 +0000.428133][6cf9] DestroyPipelineAndFilters
leave. expire time = 0 ms
[062:522] [2024-12-25 06:00:09 +0000.428166][6cf9] AppDeviceManagerStopMic
[062:522] [2024-12-25 06:00:09 +0000.428232][6cf9] AppDeviceManagerStopMic::mic
status is on
[062:522] [2024-12-25 06:00:09 +0000.428282][6cf9] Try to stop webrtc device.
[062:522] [2024-12-25 06:00:09 +0000.428313][6cf9] Set record state to
[Link]
[062:558] [2024-12-25 06:00:09 +0000.464245][6cf9] Try to destory the
[Link]
[062:640] [2024-12-25 06:00:09 +0000.545884][4c3] haveEnoughProcessedData
[Link]: 0
[062:758] [2024-12-25 06:00:09 +0000.664471][6cf9] DestroyAudioRecorder:
[062:759] [2024-12-25 06:00:09 +0000.664581][6cf9] Cleanup the buffer queue in the
recorder.
[062:759] [20[000:064] [2025-05-02 15:20:23 +0000.148134][79cc] Log to
file:/storage/emulated/0/voip-data/[Link]/[Link] start time:2025-05-
02 15:20:23 +0000
[000:064] [2025-05-02 15:20:23 +0000.148195][79cc] set AppID=50011 old AppID=-1
[000:064] [2025-05-02 15:20:23 +0000.148211][79cc] Init the android object with
jvm:0xb400007cad621380 env:0x7c8fd2f040 context:0x7c385c82e8
[000:064] [2025-05-02 15:20:23 +0000.148250][79cc] SetAndroidMediaCodecObjects
time:1242842223 enter.
[000:064] [2025-05-02 15:20:23 +0000.148274][79cc] SetAndroidMediaCodecObjects
leave. expire time = 0 ms
[000:064] [2025-05-02 15:20:23 +0000.148291][79cc] SetAndroidMediaCodecObjects
time:1242842223 enter.
[000:064] [2025-05-02 15:20:23 +0000.148304][79cc] SetAndroidMediaCodecObjects:
SetAndroidMediaCodecObjects:: jvm :0xb400007cad621380
[000:064] [2025-05-02 15:20:23 +0000.148316][79cc] SetAndroidMediaCodecObjects:
SetAndroidMediaCodecObjects success g_jvm_:0xb400007cad621380 address:0x7beea2e760
[000:064] [2025-05-02 15:20:23 +0000.148329][79cc] SetAndroidMediaCodecObjects:
SetAndroidMediaCodecObjects success g_jvm_encoder_:0xb400007cad621380
address:0x7beea2e760
[000:064] [2025-05-02 15:20:23 +0000.148342][79cc] SetAndroidMediaCodecObjects
leave. expire time = 0 ms
[000:064] [2025-05-02 15:20:23 +0000.148369][79cc] Set the android objects with
jvm:0xb400007cad621380 env:0x7c8fd2f040 context:0x7c385c82e8
[000:066] [2025-05-02 15:20:23 +0000.150713][79cc] audio jni debug :manager
SetAndroidAudioDeviceObjects env:0x7c8fd2f040
[000:066] [2025-05-02 15:20:23 +0000.150762][79cc] SystemUtil Init done
[000:069] [2025-05-02 15:20:23 +0000.153623][79cc]
Java_com_xiaomi_recordmediaprocess_MediaEffectCamera_ConstructMediaEffectCameraJni:
[000:073] [2025-05-02 15:20:23 +0000.157841][79cc] MediaFilterCamera
[000:073] [2025-05-02 15:20:23 +0000.157882][79cc] RecordingSessionInternalSimple:
Create session internal:720 X 1280 fps:30
[000:074] [2025-05-02 15:20:23 +0000.157998][79cc] createSessionInternal: create
session with video size:720 X 1280 fps:30 bitrate:14680064
[000:074] [2025-05-02 15:20:23 +0000.158036][79cc] Recording session using default
bitrate support by app:14680064
[000:074] [2025-05-02 15:20:23 +0000.158044][7bbe] Error([Link]): Set the
pthread name failed with error:34 name:Thread 0x0x7c084235c0
[000:074] [2025-05-02 15:20:23 +0000.158224][7bbe] setAudioChannelCount_w:
RecordingSessionInternalSimple:set the audio channel count:2
[000:074] [2025-05-02 15:20:23 +0000.158298][79cc] setAudioSampleRate:
RecordingSessionInternalSimple:set the audio bitrate:44100
[000:075] [2025-05-02 15:20:23 +0000.159021][79cc] Error([Link]): Open the file
failed. error:2
[000:075] [2025-05-02 15:20:23 +0000.159050][79cc]
Error(key_value_pair_store.cc:130): load the data failed from: voip_config.ini
[000:075] [2025-05-02 15:20:23 +0000.159071][79cc] The device model: 220333qag
usingSoftwareAEC value: 0
[000:077] [2025-05-02 15:20:23 +0000.161737][79cc] Error([Link]): Open the file
failed. error:2
[000:077] [2025-05-02 15:20:23 +0000.161792][79cc]
Error(key_value_pair_store.cc:130): load the data failed from:
/storage/emulated/0/voip-data/[Link]/voip_config.ini
[000:077] [2025-05-02 15:20:23 +0000.161818][79cc] The device model: 220333qag
usingHardwareAEC value: 0
[000:077] [2025-05-02 15:20:23 +0000.161833][79cc] The machine device: 220333qag
usingHardwareAEC value: 0
[000:077] [2025-05-02 15:20:23 +0000.161847][79cc] Using Default AEC type: software
AEC
[000:079] [2025-05-02 15:20:23 +0000.162973][79cc] The device model: 220333qag enum
value: 0
[000:079] [2025-05-02 15:20:23 +0000.163496][79cc] GetMachineModel is 220333QAG
[000:079] [2025-05-02 15:20:23 +0000.163523][79cc] GetMachineInfo: 220333QAG
[000:079] [2025-05-02 15:20:23 +0000.163550][79cc] Construct BeautifyReader
begin...
[000:079] [2025-05-02 15:20:23 +0000.163565][79cc] dumpStickerRgba:0
dumpStickerYuv:0
[000:079] [2025-05-02 15:20:23 +0000.163578][79cc] Construct BeautifyReader done.
[000:084] [2025-05-02 15:20:23 +0000.168243][79cc] AppDeviceManagerStartCamera::The
result of start thread is: 1 micOn:0
[000:084] [2025-05-02 15:20:23 +0000.168275][7bc1] Error([Link]): Set the
pthread name failed with error:34 name:Thread 0x0x7ca47855a0
[000:084] [2025-05-02 15:20:23 +0000.168544][79cc] AppDeviceManager telnet server
for statistics started......
[000:085] [2025-05-02 15:20:23 +0000.169035][79cc] CpuOverloadDetect
time:1242842244 enter.
[000:085] [2025-05-02 15:20:23 +0000.169119][79cc] CpuOverloadDetect leave. expire
time = 0 ms
[000:085] [2025-05-02 15:20:23 +0000.169143][7bc2] Error([Link]): Set the
pthread name failed with error:34 name:Thread 0x0x7c08751e00
[000:085] [2025-05-02 15:20:23 +0000.169816][79cc] AppDeviceMana
GetOpenslVoiceMode before get setting: 1
[000:085] [2025-05-02 15:20:23 +0000.169835][79cc] AppDeviceMana
GetOpenslVoiceMode after get setting: 1
[000:086] [2025-05-02 15:20:23 +0000.170317][79cc] AudioManagerAndroid
getProperty:[Link].OUTPUT_SAMPLE_RATE
[000:086] [2025-05-02 15:20:23 +0000.170604][79cc] AudioManagerAndroid
getProperty:[Link].OUTPUT_FRAMES_PER_BUFFER
[000:087] [2025-05-02 15:20:23 +0000.171077][79cc] CreatePlatformSpecificObjects:
[000:087] [2025-05-02 15:20:23 +0000.171099][79cc] audio device use opensle input
and opensl output
[000:087] [2025-05-02 15:20:23 +0000.171121][79cc] Create OpenSLES output module
with java VM support.
[000:087] [2025-05-02 15:20:23 +0000.171233][79cc] AudioManagerAndroid
getProperty:[Link].OUTPUT_SAMPLE_RATE
[000:087] [2025-05-02 15:20:23 +0000.171365][79cc] AudioManagerAndroid
getProperty:[Link].OUTPUT_FRAMES_PER_BUFFER
[000:087] [2025-05-02 15:20:23 +0000.171526][79cc] Create OpenSLES output module
with buffer num:1
[000:087] [2025-05-02 15:20:23 +0000.171647][79cc] AudioManagerAndroid
getProperty:[Link].OUTPUT_SAMPLE_RATE
[000:087] [2025-05-02 15:20:23 +0000.171772][79cc] AudioManagerAndroid
getProperty:[Link].OUTPUT_FRAMES_PER_BUFFER
[000:088] [2025-05-02 15:20:23 +0000.171909][79cc] Create OpenSLES input module
with java VM support.
[000:088] [2025-05-02 15:20:23 +0000.171931][79cc] Create OpenSLES input module
with buffer num:1
[000:088] [2025-05-02 15:20:23 +0000.171977][79cc] Error([Link]): Init the
output and input for audio device template.
[000:088] [2025-05-02 15:20:23 +0000.171993][79cc] Init the output device.
[000:088] [2025-05-02 15:20:23 +0000.172007][79cc] Init the opensl input.
[000:088] [2025-05-02 15:20:23 +0000.172024][79cc] AppDeviceManager get setting
samplerate: 0
[000:088] [2025-05-02 15:20:23 +0000.172395][79cc] The device model: 220333qag enum
value: 0
[000:089] [2025-05-02 15:20:23 +0000.173072][79cc] The device model: 220333qag enum
value: 0
[000:089] [2025-05-02 15:20:23 +0000.173093][79cc] Set the sample rate to be:48000
[000:089] [2025-05-02 15:20:23 +0000.173110][79cc] Enable the recording stereo:0
[000:089] [2025-05-02 15:20:23 +0000.173124][79cc] Set the playout as stereo:1
[000:089] [2025-05-02 15:20:23 +0000.173139][79cc] Init the microphone.
[000:089] [2025-05-02 15:20:23 +0000.173592][79cc] Update the recording sample rate
to be: 48000
[000:089] [2025-05-02 15:20:23 +0000.173616][79cc] Init the speaker.
[000:089] [2025-05-02 15:20:23 +0000.173645][79cc] Low latency buffer size:144 low
sample rate:48000
[000:090] [2025-05-02 15:20:23 +0000.173907][79cc] Using 1 x 10ms for an audio
frame.
[000:093] [2025-05-02 15:20:23 +0000.177457][79cc] Error(splitting_filter.cc:26):
Splitting filter only support two or three bands now.
[000:093] [2025-05-02 15:20:23 +0000.177550][79cc] Error(splitting_filter.cc:26):
Splitting filter only support two or three bands now.
[000:093] [2025-05-02 15:20:23 +0000.177587][79cc] Error(splitting_filter.cc:26):
Splitting filter only support two or three bands now.
[000:098] [2025-05-02 15:20:23 +0000.182492][79cc] The device model:220333qag
[000:098] [2025-05-02 15:20:23 +0000.182537][79cc] speaker output factor:100
defaultFactor: 100
[000:098] [2025-05-02 15:20:23 +0000.182553][79cc] headset output factor:100
defaultFactor: 100
[000:099] [2025-05-02 15:20:23 +0000.183031][79cc] AppDeviceManagerStart finished.
[000:099] [2025-05-02 15:20:23 +0000.183055][79cc] AppDeviceManagerStartMic::mic
status is off
[000:099] [2025-05-02 15:20:23 +0000.183094][79cc] AppDeviceManagerStartMic update
aec type: 2
[000:099] [2025-05-02 15:20:23 +0000.183108][79cc] AppDeviceManagerStartMic update
voiceChangeMode: 4
[000:099] [2025-05-02 15:20:23 +0000.183121][79cc]
AudioDeviceDataHandler::setVoiceChangeMode, mode : 4
[000:099] [2025-05-02 15:20:23 +0000.183133][79cc]
AudioDeviceDataHandler::StartMicProcess
[000:099] [2025-05-02 15:20:23 +0000.183253][79cc] Try to start webrtc recording
device.
[000:099] [2025-05-02 15:20:23 +0000.183270][79cc] StartRecording. threadID:31180
[000:099] [2025-05-02 15:20:23 +0000.183283][7bc4] Error([Link]): Set the
pthread name failed with error:34 name:AudioDeviceDataHandler gapProcessThread
[000:099] [2025-05-02 15:20:23 +0000.183331][7bc4] haveEnoughProcessedData
[Link]: 0
[000:099] [2025-05-02 15:20:23 +0000.183666][79cc] The machine model:220333QAG
[000:099] [2025-05-02 15:20:23 +0000.183706][79cc] default mode: Set the recording
mode to voice communication to enable HW AEC .
[000:099] [2025-05-02 15:20:23 +0000.183721][79cc] Set the recording mode before
getSetting: 4
[000:099] [2025-05-02 15:20:23 +0000.183739][79cc] Set the recording mode after
getSetting: 1
[000:137] [2025-05-02 15:20:23 +0000.221628][79cc] StartRecording finished.
[000:137] [2025-05-02 15:20:23 +0000.221679][79cc] audio: start the audio mic
checker timer.
[000:138] [2025-05-02 15:20:23 +0000.222245][79cc] machine model :redmi
[000:138] [2025-05-02 15:20:23 +0000.222277][79cc] Support this machine
model :redmi
[000:145] [2025-05-02 15:20:23 +0000.229599][79cc] global inited! current sdk
version: 12-14-d8558ab
[000:208] [2025-05-02 15:20:23 +0000.292416][7bc5] webrtc device:Handle the data
from samplesPerSec recording sample rate:48000 nSamples:480 nBytesPerSample:#
nChannels:#
[000:208] [2025-05-02 15:20:23 +0000.292472][7bc5] _deviceSampleRate:48000
[000:211] [2025-05-02 15:20:23 +0000.295732][7bc4] Run AGC when audioType = 0
[000:211] [2025-05-02 15:20:23 +0000.295817][7bc4]
AudioDeviceDataHandler::MixAndSendOutFrame
[000:617] [2025-05-02 15:20:23 +0000.700967][7a05]
Java_com_xiaomi_recordmediaprocess_OpenGlRender_SetCurrentGLContextJni:
[000:617] [2025-05-02 15:20:23 +0000.701211][7bbf] MediaFilterCamera, recording
file context:0x7c9ca64c00 input texture:4
[000:617] [2025-05-02 15:20:23 +0000.701260][7bbf] GLESContext:
[000:617] [2025-05-02 15:20:23 +0000.701330][7bbf] The result of eglGetDisplay is:
0x1
[000:618] [2025-05-02 15:20:23 +0000.702664][7bbf] The result of creation:
0x7c08729600
[000:618] [2025-05-02 15:20:23 +0000.702787][7bbf] The result of
eglCreatePbufferSurface is: 0x7c08729700
[000:619] [2025-05-02 15:20:23 +0000.702915][7a05]
Java_com_xiaomi_recordmediaprocess_OpenGlRender_SetCurrentGLContextJni:
g_eglcontext: 0x7c9ca64c00 input_texture: 4
[001:001] [2025-05-02 15:20:24 +0000.85047][79cc]
Java_com_xiaomi_recordmediaprocess_MediaEffectCamera_DestructMediaEffectCameraJni:
[001:001] [2025-05-02 15:20:24 +0000.85142][79cc] ~MediaFilterCamera
time:1242843160 enter.
[001:001] [2025-05-02 15:20:24 +0000.85160][79cc] StopPullFrameAndWriteMp4
time:1242843160 enter.
[001:001] [2025-05-02 15:20:24 +0000.85503][7bbe] stop recording
[001:001] [2025-05-02 15:20:24 +0000.85528][7bbe] we have stopped recording before
[001:001] [2025-05-02 15:20:24 +0000.85589][79cc] StopPullFrameAndWriteMp4 leave.
expire time = 0 ms
[001:002] [2025-05-02 15:20:24 +0000.85888][79cc] DestroyPipelineAndFilters
time:1242843160 enter.
[001:002] [2025-05-02 15:20:24 +0000.85908][79cc] DestroyPipelineAndFilters leave.
expire time = 1 ms
[001:002] [2025-05-02 15:20:24 +0000.85922][79cc] AppDeviceManagerStopMic
[001:002] [2025-05-02 15:20:24 +0000.85952][79cc] AppDeviceManagerStopMic::mic
status is on
[001:002] [2025-05-02 15:20:24 +0000.85964][79cc] Try to stop webrtc device.
[001:002] [2025-05-02 15:20:24 +[000:091] [2025-06-09 07:27:07 +0000.816324][5c81]
Log to file:/storage/emulated/0/voip-data/[Link]/[Link] start
time:2025-06-09 07:27:07 +0000
[000:091] [2025-06-09 07:27:07 +0000.816366][5c81] set AppID=50011 old AppID=-1
[000:091] [2025-06-09 07:27:07 +0000.816380][5c81] Init the android object with
jvm:0xb400007e7f021380 env:0x7e61729040 context:0x7e0ae532e8
[000:091] [2025-06-09 07:27:07 +0000.816414][5c81] SetAndroidMediaCodecObjects
time:157533148 enter.
[000:091] [2025-06-09 07:27:07 +0000.816434][5c81] SetAndroidMediaCodecObjects
leave. expire time = 0 ms
[000:091] [2025-06-09 07:27:07 +0000.816453][5c81] SetAndroidMediaCodecObjects
time:157533148 enter.
[000:091] [2025-06-09 07:27:07 +0000.816466][5c81] SetAndroidMediaCodecObjects:
SetAndroidMediaCodecObjects:: jvm :0xb400007e7f021380
[000:091] [2025-06-09 07:27:07 +0000.816480][5c81] SetAndroidMediaCodecObjects:
SetAndroidMediaCodecObjects success g_jvm_:0xb400007e7f021380 address:0x7dbb78e760
[000:091] [2025-06-09 07:27:07 +0000.816495][5c81] SetAndroidMediaCodecObjects:
SetAndroidMediaCodecObjects success g_jvm_encoder_:0xb400007e7f021380
address:0x7dbb78e760
[000:091] [2025-06-09 07:27:07 +0000.816507][5c81] SetAndroidMediaCodecObjects
leave. expire time = 0 ms
[000:091] [2025-06-09 07:27:07 +0000.816531][5c81] Set the android objects with
jvm:0xb400007e7f021380 env:0x7e61729040 context:0x7e0ae532e8
[000:093] [2025-06-09 07:27:07 +0000.818104][5c81] audio jni debug :manager
SetAndroidAudioDeviceObjects env:0x7e61729040
[000:093] [2025-06-09 07:27:07 +0000.818129][5c81] SystemUtil Init done
[000:096] [2025-06-09 07:27:07 +0000.821293][5c81]
Java_com_xiaomi_recordmediaprocess_MediaEffectCamera_ConstructMediaEffectCameraJni:
[000:099] [2025-06-09 07:27:07 +0000.823693][5c81] MediaFilterCamera
[000:099] [2025-06-09 07:27:07 +0000.823736][5c81] RecordingSessionInternalSimple:
Create session internal:720 X 1280 fps:30
[000:099] [2025-06-09 07:27:07 +0000.823897][5c81] createSessionInternal: create
session with video size:720 X 1280 fps:30 bitrate:14680064
[000:099] [2025-06-09 07:27:07 +0000.823932][5c81] Recording session using default
bitrate support by app:14680064
[000:099] [2025-06-09 07:27:07 +0000.823938][188c] Error([Link]): Set the
pthread name failed with error:34 name:Thread 0x0x7e6e462fc0
[000:099] [2025-06-09 07:27:07 +0000.824113][188c] setAudioChannelCount_w:
RecordingSessionInternalSimple:set the audio channel count:2
[000:099] [2025-06-09 07:27:07 +0000.824183][5c81] setAudioSampleRate:
RecordingSessionInternalSimple:set the audio bitrate:44100
[000:100] [2025-06-09 07:27:07 +0000.824888][5c81] Error([Link]): Open the file
failed. error:2
[000:100] [2025-06-09 07:27:07 +0000.824910][5c81]
Error(key_value_pair_store.cc:130): load the data failed from: voip_config.ini
[000:100] [2025-06-09 07:27:07 +0000.824929][5c81] The device model: 220333qag
usingSoftwareAEC value: 0
[000:102] [2025-06-09 07:27:07 +0000.827328][5c81] Error([Link]): Open the file
failed. error:2
[000:102] [2025-06-09 07:27:07 +0000.827371][5c81]
Error(key_value_pair_store.cc:130): load the data failed from:
/storage/emulated/0/voip-data/[Link]/voip_config.ini
[000:102] [2025-06-09 07:27:07 +0000.827396][5c81] The device model: 220333qag
usingHardwareAEC value: 0
[000:102] [2025-06-09 07:27:07 +0000.827411][5c81] The machine device: 220333qag
usingHardwareAEC value: 0
[000:102] [2025-06-09 07:27:07 +0000.827426][5c81] Using Default AEC type: software
AEC
[000:104] [2025-06-09 07:27:07 +0000.828604][5c81] The device model: 220333qag enum
value: 0
[000:104] [2025-06-09 07:27:07 +0000.829139][5c81] GetMachineModel is 220333QAG
[000:104] [2025-06-09 07:27:07 +0000.829164][5c81] GetMachineInfo: 220333QAG
[000:104] [2025-06-09 07:27:07 +0000.829191][5c81] Construct BeautifyReader
begin...
[000:104] [2025-06-09 07:27:07 +0000.829206][5c81] dumpStickerRgba:0
dumpStickerYuv:0
[000:104] [2025-06-09 07:27:07 +0000.829218][5c81] Construct BeautifyReader done.
[000:109] [2025-06-09 07:27:07 +0000.833645][5c81] AppDeviceManagerStartCamera::The
result of start thread is: 1 micOn:0
[000:109] [2025-06-09 07:27:07 +0000.833678][188f] Error([Link]): Set the
pthread name failed with error:34 name:Thread 0x0x7ddf851fa0
[000:109] [2025-06-09 07:27:07 +0000.833960][5c81] AppDeviceManager telnet server
for statistics started......
[000:109] [2025-06-09 07:27:07 +0000.834379][5c81] CpuOverloadDetect time:157533166
enter.
[000:109] [2025-06-09 07:27:07 +0000.834440][5c81] CpuOverloadDetect leave. expire
time = 0 ms
[000:109] [2025-06-09 07:27:07 +0000.834470][1890] Error([Link]): Set the
pthread name failed with error:34 name:Thread 0x0x7e6e4a5e80
[000:110] [2025-06-09 07:27:07 +0000.835116][5c81] AppDeviceMana
GetOpenslVoiceMode before get setting: 1
[000:110] [2025-06-09 07:27:07 +0000.835134][5c81] AppDeviceMana
GetOpenslVoiceMode after get setting: 1
[000:112] [2025-06-09 07:27:07 +0000.837349][5c81] AudioManagerAndroid
getProperty:[Link].OUTPUT_SAMPLE_RATE
[000:114] [2025-06-09 07:27:07 +0000.838899][5c81] AudioManagerAndroid
getProperty:[Link].OUTPUT_FRAMES_PER_BUFFER
[000:115] [2025-06-09 07:27:07 +0000.840455][5c81] CreatePlatformSpecificObjects:
[000:115] [2025-06-09 07:27:07 +0000.840483][5c81] audio device use opensle input
and opensl output
[000:115] [2025-06-09 07:27:07 +0000.840506][5c81] Create OpenSLES output module
with java VM support.
[000:116] [2025-06-09 07:27:07 +0000.840659][5c81] AudioManagerAndroid
getProperty:[Link].OUTPUT_SAMPLE_RATE
[000:116] [2025-06-09 07:27:07 +0000.840796][5c81] AudioManagerAndroid
getProperty:[Link].OUTPUT_FRAMES_PER_BUFFER
[000:116] [2025-06-09 07:27:07 +0000.840953][5c81] Create OpenSLES output module
with buffer num:1
[000:116] [2025-06-09 07:27:07 +0000.841079][5c81] AudioManagerAndroid
getProperty:[Link].OUTPUT_SAMPLE_RATE
[000:116] [2025-06-09 07:27:07 +0000.841194][5c81] AudioManagerAndroid
getProperty:[Link].OUTPUT_FRAMES_PER_BUFFER
[000:116] [2025-06-09 07:27:07 +0000.841328][5c81] Create OpenSLES input module
with java VM support.
[000:116] [2025-06-09 07:27:07 +0000.841350][5c81] Create OpenSLES input module
with buffer num:1
[000:116] [2025-06-09 07:27:07 +0000.841399][5c81] Error([Link]): Init the
output and input for audio device template.
[000:116] [2025-06-09 07:27:07 +0000.841416][5c81] Init the output device.
[000:116] [2025-06-09 07:27:07 +0000.841428][5c81] Init the opensl input.
[000:116] [2025-06-09 07:27:07 +0000.841447][5c81] AppDeviceManager get setting
samplerate: 0
[000:117] [2025-06-09 07:27:07 +0000.841877][5c81] The device model: 220333qag enum
value: 0
[000:117] [2025-06-09 07:27:07 +0000.842507][5c81] The device model: 220333qag enum
value: 0
[000:117] [2025-06-09 07:27:07 +0000.842526][5c81] Set the sample rate to be:48000
[000:117] [2025-06-09 07:27:07 +0000.842541][5c81] Enable the recording stereo:0
[000:117] [2025-06-09 07:27:07 +0000.842556][5c81] Set the playout as stereo:1
[000:117] [2025-06-09 07:27:07 +0000.842568][5c81] Init the microphone.
[000:118] [2025-06-09 07:27:07 +0000.843077][5c81] Update the recording sample rate
to be: 48000
[000:118] [2025-06-09 07:27:07 +0000.843104][5c81] Init the speaker.
[000:118] [2025-06-09 07:27:07 +0000.843136][5c81] Low latency buffer size:144 low
sample rate:48000
[000:118] [2025-06-09 07:27:07 +0000.843409][5c81] Using 1 x 10ms for an audio
frame.
[000:122] [2025-06-09 07:27:07 +0000.846780][5c81] Error(splitting_filter.cc:26):
Splitting filter only support two or three bands now.
[000:122] [2025-06-09 07:27:07 +0000.846865][5c81] Error(splitting_filter.cc:26):
Splitting filter only support two or three bands now.
[000:122] [2025-06-09 07:27:07 +0000.846919][5c81] Error(splitting_filter.cc:26):
Splitting filter only support two or three bands now.
[000:127] [2025-06-09 07:27:07 +0000.851752][5c81] The device model:220333qag
[000:127] [2025-06-09 07:27:07 +0000.851797][5c81] speaker output factor:100
defaultFactor: 100
[000:127] [2025-06-09 07:27:07 +0000.851813][5c81] headset output factor:100
defaultFactor: 100
[000:127] [2025-06-09 07:27:07 +0000.852256][5c81] AppDeviceManagerStart finished.
[000:127] [2025-06-09 07:27:07 +0000.852275][5c81] AppDeviceManagerStartMic::mic
status is off
[000:127] [2025-06-09 07:27:07 +0000.852311][5c81] AppDeviceManagerStartMic update
aec type: 2
[000:127] [2025-06-09 07:27:07 +0000.852324][5c81] AppDeviceManagerStartMic update
voiceChangeMode: 4
[000:127] [2025-06-09 07:27:07 +0000.852337][5c81]
AudioDeviceDataHandler::setVoiceChangeMode, mode : 4
[000:127] [2025-06-09 07:27:07 +0000.852348][5c81]
AudioDeviceDataHandler::StartMicProcess
[000:127] [2025-06-09 07:27:07 +0000.852474][5c81] Try to start webrtc recording
device.
[000:127] [2025-06-09 07:27:07 +0000.852492][5c81] StartRecording. threadID:23681
[000:127] [2025-06-09 07:27:07 +0000.852508][1891] Error([Link]): Set the
pthread name failed with error:34 name:AudioDeviceDataHandler gapProcessThread
[000:127] [2025-06-09 07:27:07 +0000.852559][1891] haveEnoughProcessedData
[Link]: 0
[000:128] [2025-06-09 07:27:07 +0000.852864][5c81] The machine model:220333QAG
[000:128] [2025-06-09 07:27:07 +0000.852903][5c81] default mode: Set the recording
mode to voice communication to enable HW AEC .
[000:128] [2025-06-09 07:27:07 +0000.852917][5c81] Set the recording mode before
getSetting: 4
[000:128] [2025-06-09 07:27:07 +0000.852934][5c81] Set the recording mode after
getSetting: 1
[000:166] [2025-06-09 07:27:07 +0000.890612][5c81] StartRecording finished.
[000:166] [2025-06-09 07:27:07 +0000.890665][5c81] audio: start the audio mic
checker timer.
[000:166] [2025-06-09 07:27:07 +0000.891204][5c81] machine model :redmi
[000:166] [2025-06-09 07:27:07 +0000.891230][5c81] Support this machine
model :redmi
[000:173] [2025-06-09 07:27:07 +0000.897853][5c81] global inited! current sdk
version: 12-14-d8558ab
[000:245] [2025-06-09 07:27:07 +0000.969618][1892] webrtc device:Handle the data
from samplesPerSec recording sample rate:48000 nSamples:480 nBytesPerSample:#
nChannels:#
[000:245] [2025-06-09 07:27:07 +0000.969674][1892] _deviceSampleRate:48000
[000:250] [2025-06-09 07:27:07 +0000.974789][1891] Run AGC when audioType = 0
[000:250] [2025-06-09 07:27:07 +0000.974843][1891]
AudioDeviceDataHandler::MixAndSendOutFrame
[000:611] [2025-06-09 07:27:08 +0000.336344][1788]
Java_com_xiaomi_recordmediaprocess_OpenGlRender_SetCurrentGLContextJni:
[000:611] [2025-06-09 07:27:08 +0000.336564][188d] MediaFilterCamera, recording
file context:0x7e6e4b0500 input texture:4
[000:612] [2025-06-09 07:27:08 +0000.336608][188d] GLESContext:
[000:612] [2025-06-09 07:27:08 +0000.336663][188d] The result of eglGetDisplay is:
0x1
[000:613] [2025-06-09 07:27:08 +0000.337790][188d] The result of creation:
0x7e6190e500
[000:613] [2025-06-09 07:27:08 +0000.337880][188d] The result of
eglCreatePbufferSurface is: 0x7e6190e800
[000:613] [2025-06-09 07:27:08 +0000.337992][1788]
Java_com_xiaomi_recordmediaprocess_OpenGlRender_SetCurrentGLContextJni:
g_eglcontext: 0x7e6e4b0500 input_texture: 4
[001:145] [2025-06-09 07:27:08 +0000.869701][5c81]
Java_com_xiaomi_recordmediaprocess_MediaEffectCamera_DestructMediaEffectCameraJni:
[001:145] [2025-06-09 07:27:08 +0000.869787][5c81] ~MediaFilterCamera
time:157534202 enter.
[001:145] [2025-06-09 07:27:08 +0000.869803][5c81] StopPullFrameAndWriteMp4
time:157534202 enter.
[001:145] [2025-06-09 07:27:08 +0000.870154][188c] stop recording
[001:145] [2025-06-09 07:27:08 +0000.870182][188c] we have stopped recording before
[001:145] [2025-06-09 07:27:08 +0000.870237][5c81] StopPullFrameAndWriteMp4 leave.
expire time = 0 ms
[001:145] [2025-06-09 07:27:08 +0000.870477][5c81] DestroyPipelineAndFilters
time:157534202 enter.
[001:145] [2025-06-09 07:27:08 +0000.870502][5c81] DestroyPipelineAndFilters
leave. expire time = 0 ms
[001:145] [2025-06-09 07:27:08 +0000.870517][5c81] AppDeviceManagerStopMic
[001:145] [2025-06-09 07:27:08 +0000.870546][5c81] AppDeviceManagerStopMic::mic
status is on
[001:145] [2025-06-09 07:27:08 +0000.870558][5c81] Try to stop webrtc device.
[001:145] [2025-06-09 07:27:08 +0000.870571][5c81] Set record state to
[Link]
[001:174] [2025-06-09 07:27:08 +0000.899457][5c81] Try to destory the
[Link]
[001:375] [2025-06-09 07:27:09 +0000.99634][5c81] DestroyAudioRecorder:
[001:375] [2025-06-09 07:27:09 +0000.99702][5c81] Cleanup the buffer queue in the
recorder.
[001:375] [2025-06-09 07:27:09 +0000.99724][5c81] Destroy the recorder.
[001:378] [2025-06-09 07:27:09 +0000.103219][5c81] StopRecording finished.
[001:378] [2025-06-09 07:27:09 +0000.103335][5c81] The stop recording success.
[001:378] [2025-06-09 07:27:09 +0000.103353][5c81]
AudioDeviceDataHandler::StopMicProcess
[001:379] [2025-06-09 07:27:09 +0000.103765][5c81] AppDeviceManager stop.
[001:379] [2025-06-09 07:27:09 +0000.103884][5c81] Rlease the webrtc device object.
[001:379] [2025-06-09 07:27:09 +0000.104337][5c81] OpenSlesInput destruct.
[001:379] [2025-06-09 07:27:09 +0000.104397][5c81] OpenSlesOutput destruct.
[001:380] [2025-06-09 07:27:09 +0000.105171][5c81] EventDispatchServerScope
destruct
[001:380] [2025-06-09 07:27:09 +0000.105207][5c81]
Warning([Link]): PhysicalSocketServer destruct
[001:380] [2025-06-09 07:27:09 +0000.105252][5c81] ~AudioDeviceDataHandler
[001:381] [2025-06-09 07:27:09 +0000.106031][5c81] AppDeviceManagerDestruct.
[001:381] [2025-06-09 07:27:09 +0000.106080][5c81] ~AppDeviceManager:
[001:381] [2025-06-09 07:27:09 +0000.106137][5c81] ~CpuOverloadDetect
time:157534438 enter.
[001:381] [2025-06-09 07:27:09 +0000.106558][5c81] ~CpuOverloadDetect leave.
expire time = 0 ms
[001:389] [2025-06-09 07:27:09 +0000.113720][5c81] Destruct BeautifyReader begin...
[001:389] [2025-06-09 07:27:09 +0000.113822][5c81] Destruct BeautifyReader done.
[001:389] [2025-06-09 07:27:09 +0000.113861][5c81] ~MediaFilterCamera leave.
expire time = 244 ms
[001:389] [2025-06-09 07:27:09 +0000.114124][5c81] ~GLESContext:
[001:392] [2025-06-09 07:27:09 +0000.117536][5c81] GLESContext destruct finish.
[001:393] [2025-06-09 07:27:09 +0000.117668][5c81] ~RecordingSessionInternalSimple:
RecordingSessionInternalSimple::~RecordingSessionInternalSimple
[001:393] [2025-06-09 07:27:09 +0000.118246][5c81] global uninited!
[001:395] [2025-06-09 07:27:09 +0000.119877][5c81] clear AppID 50011
[001:395] [2025-06-09 07:27:09 +0000.119941][5c81] UnRegister JVM for Xplatform
util
[001:395] [2025-06-09 07:27:09 +0000.119965][5c81] Dispose::unregister webrtc video
engine
[001:395] [2025-06-09 07:27:09 +0000.119977][5c81] Init the android object with
jvm:0x0 env:0x0 context:0x0
[001:395] [2025-06-09 07:27:09 +0000.120001][5c81] SetAndroidMediaCodecObjects
time:157534452 enter.
[001:395] [2025-06-09 07:27:09 +0000.120015][5c81] ClearAndroidMediaCodecObjects
time:157534452 enter.
[001:395] [2025-06-09 07:27:09 +0000.120035][5c81] ClearAndroidMediaCodecObjects
leave. expire time = 0 ms
[001:395] [2025-06-09 07:27:09 +0000.120051][5c81] SetAndroidMediaCodecObjects
leave. expire time = 0 ms
[001:395] [2025-06-09 07:27:09 +0000.120064][5c81] SetAndroidMediaCodecObjects
time:157534452 enter.
[001:395] [2025-06-09 07:27:09 +0000.120079][5c81] SetAndroidMediaCodecObjects:
SetAndroidMediaCodecObjects:: jvm :0x0
[001:395] [2025-06-09 07:27:09 +0000.120093][5c81] ClearAndroidMediaCodecObjects
time:157534452 enter.
[001:395] [2025-06-09 07:27:09 +0000.120106][5c81] ClearAndroidMediaCodecObjects
leave. expire time = 0 ms
[001:395] [2025-06-09 07:27:09 +0000.120118][5c81] SetAndroidMediaCodecObjects:
SetAndroidMediaCodecObjects failed
[001:395] [2025-06-09 07:27:09 +0000.120130][5c81] SetAndroidMediaCodecObjects
leave. expire time = 0 ms
[001:395] [2025-06-09 07:27:09 +0000.120143][5c81] Dispose::unregister webrtc voice
engine
[001:395] [2025-06-09 07:27:09 +0000.120156][5c81] Set the android objects with
jvm:0x0 env:0x0 context:0x0
[001:395] [2025-06-09 07:27:09 +0000.120173][5c81] SystemUtil UnInit done
[008:120] [2025-06-09 07:27:15 +0000.845381][5c81] Register JVM for xplatform util
[008:125] [2025-06-09 07:27:15 +0000.849731][5c81] Log to
file:/storage/emulated/0/voip-data/[Link]/[Link] start time:2025-06-
09 07:27:15 +0000
[008:125] [2025-06-09 07:27:15 +0000.849767][5c81] set AppID=50011 old AppID=-1
[008:125] [2025-06-09 07:27:15 +0000.849781][5c81] Init the android object with
jvm:0xb400007e7f021380 env:0x7e61729040 context:0x7e0ae532e8
[008:125] [2025-06-09 07:27:15 +0000.849800][5c81] SetAndroidMediaCodecObjects
time:157541182 enter.
[008:125] [2025-06-09 07:27:15 +0000.849817][5c81] SetAndroidMediaCodecObjects
leave. expire time = 0 ms
[008:125] [2025-06-09 07:27:15 +0000.849830][5c81] SetAndroidMediaCodecObjects
time:157541182 enter.
[008:125] [2025-06-09 07:27:15 +0000.849842][5c81] SetAndroidMediaCodecObjects:
SetAndroidMediaCodecObjects:: jvm :0xb400007e7f021380
[008:125] [2025-06-09 07:27:15 +0000.849853][5c81] SetAndroidMediaCodecObjects:
SetAndroidMediaCodecObjects success g_jvm_:0xb400007e7f021380 address:0x7dbb78e760
[008:125] [2025-06-09 07:27:15 +0000.849866][5c81] SetAndroidMediaCodecObjects:
SetAndroidMediaCodecObjects success g_jvm_encoder_:0xb400007e7f021380
address:0x7dbb78e760
[008:125] [2025-06-09 07:27:15 +0000.849878][5c81] SetAndroidMediaCodecObjects
leave. expire time = 0 ms
[008:125] [2025-06-09 07:27:15 +0000.849891][5c81] Set the android objects with
jvm:0xb400007e7f021380 env:0x7e61729040 context:0x7e0ae532e8
[008:125] [2025-06-09 07:27:15 +0000.849904][5c81] audio jni debug :manager
SetAndroidAudioDeviceObjects env:0x7e61729040
[008:125] [2025-06-09 07:27:15 +0000.849919][5c81] SystemUtil Init done
[008:125] [2025-06-09 07:27:15 +0000.850109][5c81]
Java_com_xiaomi_recordmediaprocess_MediaEffectCamera_ConstructMediaEffectCameraJni:
[008:125] [2025-06-09 07:27:15 +0000.850212][5c81] MediaFilterCamera
[008:125] [2025-06-09 07:27:15 +0000.850236][5c81] RecordingSessionInternalSimple:
Create session internal:720 X 1280 fps:30
[008:125] [2025-06-09 07:27:15 +0000.850451][5c81] createSessionInternal: create
session with video size:720 X 1280 fps:30 bitrate:14680064
[008:125] [2025-06-09 07:27:15 +0000.850478][5c81] Recording session using default
bitrate support by app:14680064
[008:125] [2025-06-09 07:27:15 +0000.850489][18ec] Error([Link]): Set the
pthread name failed with error:34 name:Thread 0x0x7e6e4639c0
[008:125] [2025-06-09 07:27:15 +0000.850526][18ec] setAudioChannelCount_w:
RecordingSessionInternalSimple:set the audio channel count:2
[008:126] [2025-06-09 07:27:15 +0000.850590][5c81] setAudioSampleRate:
RecordingSessionInternalSimple:set the audio bitrate:44100
[008:126] [2025-06-09 07:27:15 +0000.851394][5c81] Error([Link]): Open the file
failed. error:2
[008:126] [2025-06-09 07:27:15 +0000.851415][5c81]
Error(key_value_pair_store.cc:130): load the data failed from: voip_config.ini
[008:126] [2025-06-09 07:27:15 +0000.851431][5c81] The device model: 220333qag
usingSoftwareAEC value: 0
[008:128] [2025-06-09 07:27:15 +0000.853362][5c81] Error([Link]): Open the file
failed. error:2
[008:128] [2025-06-09 07:27:15 +0000.853388][5c81]
Error(key_value_pair_store.cc:130): load the data failed from:
/storage/emulated/0/voip-data/[Link]/voip_config.ini
[008:128] [2025-06-09 07:27:15 +0000.853409][5c81] The device model: 220333qag
usingHardwareAEC value: 0
[008:128] [2025-06-09 07:27:15 +0000.853423][5c81] The machine device: 220333qag
usingHardwareAEC value: 0
[008:128] [2025-06-09 07:27:15 +0000.853437][5c81] Using Default AEC type: software
AEC
[008:129] [2025-06-09 07:27:15 +0000.854496][5c81] The device model: 220333qag enum
value: 0
[008:130] [2025-06-09 07:27:15 +0000.854987][5c81] GetMachineModel is 220333QAG
[008:130] [2025-06-09 07:27:15 +0000.855010][5c81] GetMachineInfo: 220333QAG
[008:130] [2025-06-09 07:27:15 +0000.855024][5c81] Construct BeautifyReader
begin...
[008:130] [2025-06-09 07:27:15 +0000.855037][5c81] dumpStickerRgba:0
dumpStickerYuv:0
[008:130] [2025-06-09 07:27:15 +0000.855049][5c81] Construct BeautifyReader done.
[008:133] [2025-06-09 07:27:15 +0000.857728][5c81] AppDeviceManagerStartCamera::The
result of start thread is: 1 micOn:0
[008:133] [2025-06-09 07:27:15 +0000.857784][5c81] AppDeviceManager telnet server
for statistics started......
[008:133] [2025-06-09 07:27:15 +0000.857765][18ef] Error([Link]): Set the
pthread name failed with error:34 name:Thread 0x0x7ddf84e7a0
[008:133] [2025-06-09 07:27:15 +0000.858139][5c81] CpuOverloadDetect time:157541190
enter.
[008:133] [2025-06-09 07:27:15 +0000.858205][5c81] CpuOverloadDetect leave. expire
time = 0 ms
[008:133] [2025-06-09 07:27:15 +0000.858230][18f0] Error([Link]): Set the
pthread name failed with error:34 name:Thread 0x0x7e6e4a6040
[008:134] [2025-06-09 07:27:15 +0000.858866][5c81] AppDeviceMana
GetOpenslVoiceMode before get setting: 1
[008:134] [2025-06-09 07:27:15 +0000.858884][5c81] AppDeviceMana
GetOpenslVoiceMode after get setting: 1
[008:134] [2025-06-09 07:27:15 +0000.859143][5c81] AudioManagerAndroid
getProperty:[Link].OUTPUT_SAMPLE_RATE
[008:134] [2025-06-09 07:27:15 +0000.859434][5c81] AudioManagerAndroid
getProperty:[Link].OUTPUT_FRAMES_PER_BUFFER
[008:135] [2025-06-09 07:27:15 +0000.859695][5c81] CreatePlatformSpecificObjects:
[008:135] [2025-06-09 07:27:15 +0000.859718][5c81] audio device use opensle input
and opensl output
[008:135] [2025-06-09 07:27:15 +0000.859737][5c81] Create OpenSLES output module
with java VM support.
[008:135] [2025-06-09 07:27:15 +0000.859866][5c81] AudioManagerAndroid
getProperty:[Link].OUTPUT_SAMPLE_RATE
[008:135] [2025-06-09 07:27:15 +0000.859992][5c81] AudioManagerAndroid
getProperty:[Link].OUTPUT_FRAMES_PER_BUFFER
[008:135] [2025-06-09 07:27:15 +0000.860152][5c81] Create OpenSLES output module
with buffer num:1
[008:135] [2025-06-09 07:27:15 +0000.860253][5c81] AudioManagerAndroid
getProperty:[Link].OUTPUT_SAMPLE_RATE
[008:135] [2025-06-09 07:27:15 +0000.860368][5c81] AudioManagerAndroid
getProperty:[Link].OUTPUT_FRAMES_PER_BUFFER
[008:135] [2025-06-09 07:27:15 +0000.860509][5c81] Create OpenSLES input module
with java VM support.
[008:135] [2025-06-09 07:27:15 +0000.860531][5c81] Create OpenSLES input module
with buffer num:1
[008:135] [2025-06-09 07:27:15 +0000.860554][5c81] Error([Link]): Init the
output and input for audio device template.
[008:135] [2025-06-09 07:27:15 +0000.860568][5c81] Init the output device.
[008:135] [2025-06-09 07:27:15 +0000.860580][5c81] Init the opensl input.
[008:136] [2025-06-09 07:27:15 +0000.860596][5c81] AppDeviceManager get setting
samplerate: 0
[008:136] [2025-06-09 07:27:15 +0000.860982][5c81] The device model: 220333qag enum
value: 0
[008:137] [2025-06-09 07:27:15 +0000.861602][5c81] The device model: 220333qag enum
value: 0
[008:137] [2025-06-09 07:27:15 +0000.861618][5c81] Set the sample rate to be:48000
[008:137] [2025-06-09 07:27:15 +0000.861632][5c81] Enable the recording stereo:0
[008:137] [2025-06-09 07:27:15 +0000.861646][5c81] Set the playout as stereo:1
[008:137] [2025-06-09 07:27:15 +0000.861659][5c81] Init the microphone.
[008:137] [2025-06-09 07:27:15 +0000.861960][5c81] Update the recording sample rate
to be: 48000
[008:137] [2025-06-09 07:27:15 +0000.861982][5c81] Init the speaker.
[008:137] [2025-06-09 07:27:15 +0000.862005][5c81] Low latency buffer size:144 low
sample rate:48000
[008:137] [2025-06-09 07:27:15 +0000.862246][5c81] Using 1 x 10ms for an audio
frame.
[008:141] [2025-06-09 07:27:15 +0000.865665][5c81] Error(splitting_filter.cc:26):
Splitting filter only support two or three bands now.
[008:141] [2025-06-09 07:27:15 +0000.865742][5c81] Error(splitting_filter.cc:26):
Splitting filter only support two or three bands now.
[008:141] [2025-06-09 07:27:15 +0000.865773][5c81] Error(splitting_filter.cc:26):
Splitting filter only support two or three bands now.
[008:145] [2025-06-09 07:27:15 +0000.870470][5c81] The device model:220333qag
[008:145] [2025-06-09 07:27:15 +0000.870513][5c81] speaker output factor:100
defaultFactor: 100
[008:145] [2025-06-09 07:27:15 +0000.870529][5c81] headset output factor:100
defaultFactor: 100
[008:146] [2025-06-09 07:27:15 +0000.870923][5c81] AppDeviceManagerStart finished.
[008:146] [2025-06-09 07:27:15 +0000.870941][5c81] AppDeviceManagerStartMic::mic
status is off
[008:146] [2025-06-09 07:27:15 +0000.870979][5c81] AppDeviceManagerStartMic update
aec type: 2
[008:146] [2025-06-09 07:27:15 +0000.870993][5c81] AppDeviceManagerStartMic update
voiceChangeMode: 4
[008:146] [2025-06-09 07:27:15 +0000.871006][5c81]
AudioDeviceDataHandler::setVoiceChangeMode, mode : 4
[008:146] [2025-06-09 07:27:15 +0000.871019][5c81]
AudioDeviceDataHandler::StartMicProcess
[008:146] [2025-06-09 07:27:15 +0000.871164][5c81] Try to start webrtc recording
device.
[008:146] [2025-06-09 07:27:15 +0000.871182][5c81] StartRecording. threadID:23681
[008:146] [2025-06-09 07:27:15 +0000.871197][18f1] Error([Link]): Set the
pthread name failed with error:34 name:AudioDeviceDataHandler gapProcessThread
[008:146] [2025-06-09 07:27:15 +0000.871224][5c81] default mode: Set the recording
mode to voice communication to enable HW AEC .
[008:146] [2025-06-09 07:27:15 +0000.871239][5c81] Set the recording mode before
getSetting: 4
[008:146] [2025-06-09 07:27:15 +0000.871256][5c81] Set the recording mode after
getSetting: 1
[008:159] [2025-06-09 07:27:15 +0000.884365][5c81] StartRecording finished.
[008:159] [2025-06-09 07:27:15 +0000.884418][5c81] audio: start the audio mic
checker timer.
[008:160] [2025-06-09 07:27:15 +0000.884894][5c81] machine model :redmi
[008:160] [2025-06-09 07:27:15 +0000.884921][5c81] Support this machine
model :redmi
[008:160] [2025-06-09 07:27:15 +0000.884940][5c81] global inited! current sdk
version: 12-14-d8558ab
[008:635] [2025-06-09 07:27:16 +0000.360589][1788]
Java_com_xiaomi_recordmediaprocess_OpenGlRender_SetCurrentGLContextJni:
[008:636] [2025-06-09 07:27:16 +0000.360875][18ed] MediaFilterCamera, recording
file context:0x7e6e4b0500 input texture:4
[008:636] [2025-06-09 07:27:16 +0000.360907][18ed] GLESContext:
[008:636] [2025-06-09 07:27:16 +0000.360943][18ed] The result of eglGetDisplay is:
0x1
[008:637] [2025-06-09 07:27:16 +0000.362147][18ed] The result of creation:
0x7e6173cc80
[008:637] [2025-06-09 07:27:16 +0000.362239][18ed] The result of
eglCreatePbufferSurface is: 0x7e6178c180
[008:637] [2025-06-09 07:27:16 +0000.362334][1788]
Java_com_xiaomi_recordmediaprocess_OpenGlRender_SetCurrentGLContextJni:
g_eglcontext: 0x7e6e4b0500 input_texture: 4
[008:723] [2025-06-09 07:27:16 +0000.448161][18f1] haveEnoughProcessedData
[Link]: 0
[009:307] [2025-06-09 07:27:17 +0000.31743][18f1] Run AGC when audioType = 0
[010:080] [2025-06-09 07:27:17 +0000.805098][5c81]
Java_com_xiaomi_recordmediaprocess_MediaEffectCamera_DestructMediaEffectCameraJni:
[010:080] [2025-06-09 07:27:17 +0000.805216][5c81] ~MediaFilterCamera
time:157543137 enter.
[010:080] [2025-06-09 07:27:17 +0000.805248][5c81] StopPullFrameAndWriteMp4
time:157543137 enter.
[010:081] [2025-06-09 07:27:17 +0000.805695][18ec] stop recording
[010:081] [2025-06-09 07:27:17 +0000.805729][18ec] we have stopped recording before
[010:081] [2025-06-09 07:27:17 +0000.805792][5c81] StopPullFrameAndWriteMp4 leave.
expire time = 1 ms
[010:081] [2025-06-09 07:27:17 +0000.806096][5c81] DestroyPipelineAndFilters
time:157543138 enter.
[010:081] [2025-06-09 07:27:17 +0000.806132][5c81] DestroyPipelineAndFilters
leave. expire time = 0 ms
[010:081] [2025-06-09 07:27:17 +0000.806149][5c81] AppDeviceManagerStopMic
[010:081] [2025-06-09 07:27:17 +0000.806188][5c81] AppDeviceManagerStopMic::mic
status is on
[010:081] [2025-06-09 07:27:17 +0000.806200][5c81] Try to stop webrtc device.
[010:081] [2025-06-09 07:27:17 +0000.806213][5c81] Set record state to
[Link]
[010:112] [2025-06-09 07:27:17 +0000.837464][5c81] Try to destory the
[Link]
[010:313] [2025-06-09 07:27:18 +0000.37637][5c81] DestroyAudioRecorder:
[010:313] [2025-06-09 07:27:18 +0000.37742][5c81] Cleanup the buffer queue in the
recorder.
[010:313] [2025-06-09 07:27:18 +0000.37763][5c81] Destroy the recorder.
[010:316] [2025-06-09 [000:101] [2025-07-07 06:36:43 +0000.956670][32e4] Log to
file:/storage/emulated/0/voip-data/[Link]/[Link] start time:2025-07-
07 06:36:43 +0000
[000:101] [2025-07-07 06:36:43 +0000.956781][32e4] set AppID=50011 old AppID=-1
[000:101] [2025-07-07 06:36:43 +0000.956811][32e4] Init the android object with
jvm:0xb40000715d221380 env:0x713ef0b040 context:0x70e86d32e8
[000:101] [2025-07-07 06:36:43 +0000.956860][32e4] SetAndroidMediaCodecObjects
time:769376498 enter.
[000:101] [2025-07-07 06:36:43 +0000.956915][32e4] SetAndroidMediaCodecObjects
leave. expire time = 0 ms
[000:101] [2025-07-07 06:36:43 +0000.956962][32e4] SetAndroidMediaCodecObjects
time:769376498 enter.
[000:101] [2025-07-07 06:36:43 +0000.957005][32e4] SetAndroidMediaCodecObjects:
SetAndroidMediaCodecObjects:: jvm :0xb40000715d221380
[000:101] [2025-07-07 06:36:43 +0000.957048][32e4] SetAndroidMediaCodecObjects:
SetAndroidMediaCodecObjects success g_jvm_:0xb40000715d221380 address:0x709b41e760
[000:101] [2025-07-07 06:36:43 +0000.957092][32e4] SetAndroidMediaCodecObjects:
SetAndroidMediaCodecObjects success g_jvm_encoder_:0xb40000715d221380
address:0x709b41e760
[000:101] [2025-07-07 06:36:43 +0000.957133][32e4] SetAndroidMediaCodecObjects
leave. expire time = 0 ms
[000:101] [2025-07-07 06:36:43 +0000.957172][32e4] Set the android objects with
jvm:0xb40000715d221380 env:0x713ef0b040 context:0x70e86d32e8
[000:102] [2025-07-07 06:36:43 +0000.958225][32e4] audio jni debug :manager
SetAndroidAudioDeviceObjects env:0x713ef0b040
[000:102] [2025-07-07 06:36:43 +0000.958275][32e4] SystemUtil Init done
[000:106] [2025-07-07 06:36:43 +0000.961973][32e4]
Java_com_xiaomi_recordmediaprocess_MediaEffectCamera_ConstructMediaEffectCameraJni:
[000:108] [2025-07-07 06:36:43 +0000.964383][32e4] MediaFilterCamera
[000:109] [2025-07-07 06:36:43 +0000.964452][32e4] RecordingSessionInternalSimple:
Create session internal:720 X 1280 fps:30
[000:109] [2025-07-07 06:36:43 +0000.964589][32e4] createSessionInternal: create
session with video size:720 X 1280 fps:30 bitrate:14680064
[000:109] [2025-07-07 06:36:43 +0000.964630][3bcc] Error([Link]): Set the
pthread name failed with error:34 name:Thread 0x0x714c4877c0
[000:109] [2025-07-07 06:36:43 +0000.964646][32e4] Recording session using default
bitrate support by app:14680064
[000:109] [2025-07-07 06:36:43 +0000.964885][3bcc] setAudioChannelCount_w:
RecordingSessionInternalSimple:set the audio channel count:2
[000:109] [2025-07-07 06:36:43 +0000.964973][32e4] setAudioSampleRate:
RecordingSessionInternalSimple:set the audio bitrate:44100
[000:110] [2025-07-07 06:36:43 +0000.965722][32e4] Error([Link]): Open the file
failed. error:2
[000:110] [2025-07-07 06:36:43 +0000.965766][32e4]
Error(key_value_pair_store.cc:130): load the data failed from: voip_config.ini
[000:110] [2025-07-07 06:36:43 +0000.965817][32e4] The device model: 220333qag
usingSoftwareAEC value: 0
[000:112] [2025-07-07 06:36:43 +0000.968048][32e4] Error([Link]): Open the file
failed. error:2
[000:112] [2025-07-07 06:36:43 +0000.968099][32e4]
Error(key_value_pair_store.cc:130): load the data failed from:
/storage/emulated/0/voip-data/[Link]/voip_config.ini
[000:112] [2025-07-07 06:36:43 +0000.968136][32e4] The device model: 220333qag
usingHardwareAEC value: 0
[000:112] [2025-07-07 06:36:43 +0000.968173][32e4] The machine device: 220333qag
usingHardwareAEC value: 0
[000:112] [2025-07-07 06:36:43 +0000.968215][32e4] Using Default AEC type: software
AEC
[000:113] [2025-07-07 06:36:43 +0000.969321][32e4] The device model: 220333qag enum
value: 0
[000:114] [2025-07-07 06:36:43 +0000.969896][32e4] GetMachineModel is 220333QAG
[000:114] [2025-07-07 06:36:43 +0000.969958][32e4] GetMachineInfo: 220333QAG
[000:114] [2025-07-07 06:36:43 +0000.970018][32e4] Construct BeautifyReader
begin...
[000:114] [2025-07-07 06:36:43 +0000.970057][32e4] dumpStickerRgba:0
dumpStickerYuv:0
[000:114] [2025-07-07 06:36:43 +0000.970095][32e4] Construct BeautifyReader done.
[000:119] [2025-07-07 06:36:43 +0000.974974][32e4] AppDeviceManagerStartCamera::The
result of start thread is: 1 micOn:0
[000:119] [2025-07-07 06:36:43 +0000.975004][3bcf] Error([Link]): Set the
pthread name failed with error:34 name:Thread 0x0x714c4c7ea0
[000:120] [2025-07-07 06:36:43 +0000.975467][32e4] AppDeviceManager telnet server
for statistics started......
[000:120] [2025-07-07 06:36:43 +0000.975923][32e4] CpuOverloadDetect time:769376517
enter.
[000:120] [2025-07-07 06:36:43 +0000.976017][32e4] CpuOverloadDetect leave. expire
time = 0 ms
[000:120] [2025-07-07 06:36:43 +0000.976041][3bd0] Error([Link]): Set the
pthread name failed with error:34 name:Thread 0x0x70a1f59f80
[000:121] [2025-07-07 06:36:43 +0000.976739][32e4] AppDeviceMana
GetOpenslVoiceMode before get setting: 1
[000:121] [2025-07-07 06:36:43 +0000.976781][32e4] AppDeviceMana
GetOpenslVoiceMode after get setting: 1
[000:126] [2025-07-07 06:36:43 +0000.981697][32e4] AudioManagerAndroid
getProperty:[Link].OUTPUT_SAMPLE_RATE
[000:129] [2025-07-07 06:36:43 +0000.984744][32e4] AudioManagerAndroid
getProperty:[Link].OUTPUT_FRAMES_PER_BUFFER
[000:129] [2025-07-07 06:36:43 +0000.985358][32e4] CreatePlatformSpecificObjects:
[000:129] [2025-07-07 06:36:43 +0000.985410][32e4] audio device use opensle input
and opensl output
[000:130] [2025-07-07 06:36:43 +0000.985468][32e4] Create OpenSLES output module
with java VM support.
[000:130] [2025-07-07 06:36:43 +0000.985656][32e4] AudioManagerAndroid
getProperty:[Link].OUTPUT_SAMPLE_RATE
[000:130] [2025-07-07 06:36:43 +0000.985791][32e4] AudioManagerAndroid
getProperty:[Link].OUTPUT_FRAMES_PER_BUFFER
[000:130] [2025-07-07 06:36:43 +0000.985981][32e4] Create OpenSLES output module
with buffer num:1
[000:130] [2025-07-07 06:36:43 +0000.986134][32e4] AudioManagerAndroid
getProperty:[Link].OUTPUT_SAMPLE_RATE
[000:130] [2025-07-07 06:36:43 +0000.986258][32e4] AudioManagerAndroid
getProperty:[Link].OUTPUT_FRAMES_PER_BUFFER
[000:130] [2025-07-07 06:36:43 +0000.986409][32e4] Create OpenSLES input module
with java VM support.
[000:131] [2025-07-07 06:36:43 +0000.986472][32e4] Create OpenSLES input module
with buffer num:1
[000:131] [2025-07-07 06:36:43 +0000.986553][32e4] Error([Link]): Init the
output and input for audio device template.
[000:131] [2025-07-07 06:36:43 +0000.986603][32e4] Init the output device.
[000:131] [2025-07-07 06:36:43 +0000.986650][32e4] Init the opensl input.
[000:131] [2025-07-07 06:36:43 +0000.986702][32e4] AppDeviceManager get setting
samplerate: 0
[000:131] [2025-07-07 06:36:43 +0000.987154][32e4] The device model: 220333qag enum
value: 0
[000:132] [2025-07-07 06:36:43 +0000.987807][32e4] The device model: 220333qag enum
value: 0
[000:132] [2025-07-07 06:36:43 +0000.987849][32e4] Set the sample rate to be:48000
[000:132] [2025-07-07 06:36:43 +0000.987889][32e4] Enable the recording stereo:0
[000:132] [2025-07-07 06:36:43 +0000.987937][32e4] Set the playout as stereo:1
[000:132] [2025-07-07 06:36:43 +0000.987976][32e4] Init the microphone.
[000:132] [2025-07-07 06:36:43 +0000.988424][32e4] Update the recording sample rate
to be: 48000
[000:133] [2025-07-07 06:36:43 +0000.988470][32e4] Init the speaker.
[000:133] [2025-07-07 06:36:43 +0000.988513][32e4] Low latency buffer size:144 low
sample rate:48000
[000:133] [2025-07-07 06:36:43 +0000.988783][32e4] Using 1 x 10ms for an audio
frame.
[000:136] [2025-07-07 06:36:43 +0000.992243][32e4] Error(splitting_filter.cc:26):
Splitting filter only support two or three bands now.
[000:136] [2025-07-07 06:36:43 +0000.992418][32e4] Error(splitting_filter.cc:26):
Splitting filter only support two or three bands now.
[000:137] [2025-07-07 06:36:43 +0000.992484][32e4] Error(splitting_filter.cc:26):
Splitting filter only support two or three bands now.
[000:141] [2025-07-07 06:36:43 +0000.997363][32e4] The device model:220333qag
[000:142] [2025-07-07 06:36:43 +0000.997458][32e4] speaker output factor:100
defaultFactor: 100
[000:142] [2025-07-07 06:36:43 +0000.997487][32e4] headset output factor:100
defaultFactor: 100
[000:142] [2025-07-07 06:36:43 +0000.997952][32e4] AppDeviceManagerStart finished.
[000:142] [2025-07-07 06:36:43 +0000.997995][32e4] AppDeviceManagerStartMic::mic
status is off
[000:142] [2025-07-07 06:36:43 +0000.998064][32e4] AppDeviceManagerStartMic update
aec type: 2
[000:142] [2025-07-07 06:36:43 +0000.998100][32e4] AppDeviceManagerStartMic update
voiceChangeMode: 4
[000:142] [2025-07-07 06:36:43 +0000.998145][32e4]
AudioDeviceDataHandler::setVoiceChangeMode, mode : 4
[000:142] [2025-07-07 06:36:43 +0000.998188][32e4]
AudioDeviceDataHandler::StartMicProcess
[000:142] [2025-07-07 06:36:43 +0000.998322][32e4] Try to start webrtc recording
device.
[000:142] [2025-07-07 06:36:43 +0000.998361][32e4] StartRecording. threadID:13028
[000:142] [2025-07-07 06:36:43 +0000.998350][3bd1] Error([Link]): Set the
pthread name failed with error:34 name:AudioDeviceDataHandler gapProcessThread
[000:143] [2025-07-07 06:36:43 +0000.998536][3bd1] haveEnoughProcessedData
[Link]: 0
[000:143] [2025-07-07 06:36:43 +0000.998816][32e4] The machine model:220333QAG
[000:143] [2025-07-07 06:36:43 +0000.998878][32e4] default mode: Set the recording
mode to voice communication to enable HW AEC .
[000:143] [2025-07-07 06:36:43 +0000.998915][32e4] Set the recording mode before
getSetting: 4
[000:143] [2025-07-07 06:36:43 +0000.998962][32e4] Set the recording mode after
getSetting: 1
[000:201] [2025-07-07 06:36:44 +0000.56696][32e4] StartRecording finished.
[000:201] [2025-07-07 06:36:44 +0000.56774][32e4] audio: start the audio mic
checker timer.
[000:202] [2025-07-07 06:36:44 +0000.57460][32e4] machine model :redmi
[000:202] [2025-07-07 06:36:44 +0000.57521][32e4] Support this machine model :redmi
[000:208] [2025-07-07 06:36:44 +0000.63823][32e4] global inited! current sdk
version: 12-14-d8558ab
[000:287] [2025-07-07 06:36:44 +0000.142567][3bd2] webrtc device:Handle the data
from samplesPerSec recording sample rate:48000 nSamples:480 nBytesPerSample:#
nChannels:#
[000:287] [2025-07-07 06:36:44 +0000.142659][3bd2] _deviceSampleRate:48000
[000:290] [2025-07-07 06:36:44 +0000.145988][3bd1] Run AGC when audioType = 0
[000:290] [2025-07-07 06:36:44 +0000.146086][3bd1]
AudioDeviceDataHandler::MixAndSendOutFrame
[000:742] [2025-07-07 06:36:44 +0000.598326][39ab]
Java_com_xiaomi_recordmediaprocess_OpenGlRender_SetCurrentGLContextJni:
[000:743] [2025-07-07 06:36:44 +0000.598731][3bcd] MediaFilterCamera, recording
file context:0x713f049f00 input texture:4
[000:743] [2025-07-07 06:36:44 +0000.598840][3bcd] GLESContext:
[000:743] [2025-07-07 06:36:44 +0000.598938][3bcd] The result of eglGetDisplay is:
0x1
[000:752] [2025-07-07 06:36:44 +0000.607961][3bcd] The result of creation:
0x70b601ab80
[000:752] [2025-07-07 06:36:44 +0000.608405][3bcd] The result of
eglCreatePbufferSurface is: 0x70b601ac80
[000:753] [2025-07-07 06:36:44 +0000.608746][39ab]
Java_com_xiaomi_recordmediaprocess_OpenGlRender_SetCurrentGLContextJni:
g_eglcontext: 0x713f049f00 input_texture: 4
[001:896] [2025-07-07 06:36:45 +0000.752402][3bd1] haveEnoughProcessedData
[Link]: 10
[002:285] [2025-07-07 06:36:46 +0000.141200][3bd1] Run AGC when audioType = 0
[002:648] [2025-07-07 06:36:46 +0000.503707][32e4]
Java_com_xiaomi_recordmediaprocess_MediaEffectCamera_DestructMediaEffectCameraJni:
[002:648] [2025-07-07 06:36:46 +0000.503807][32e4] ~MediaFilterCamera
time:769379045 enter.
[002:648] [2025-07-07 06:36:46 +0000.503837][32e4] StopPullFrameAndWriteMp4
time:769379045 enter.
[002:648] [2025-07-07 06:36:46 +0000.504135][3bcc] stop recording
[002:648] [2025-07-07 06:36:46 +0000.504187][3bcc] we have stopped recording before
[002:648] [2025-07-07 06:36:46 +0000.504250][32e4] StopPullFrameAndWriteMp4 leave.
expire time = 0 ms
[002:649] [2025-07-07 06:36:46 +0000.504494][32e4] DestroyPipelineAndFilters
time:769379046 enter.
[002:649] [2025-07-07 06:36:46 +0000.504534][32e4] DestroyPipelineAndFilters
leave. expire time = 0 ms
[002:649] [2025-07-07 06:36:46 +0000.504563][32e4] AppDeviceManagerStopMic
[002:649] [2025-07-07 06:36:46 +0000.504618][32e4] AppDeviceManagerStopMic::mic
status is on
[002:649] [2025-07-07 06:36:46 +0000.504677][32e4] Try to stop webrtc device.
[002:649] [2025-07-07 06:36:46 +0000.504739][32e4] Set record state to
[Link]
[002:691] [2025-07-07 06:36:46 +0000.546597][32e4] Try to destory the
[Link]
[002:891] [2025-07-07 06:36:46 +0000.746817][32e4] DestroyAudioRecorder:
[002:891] [2025-07-07 06:36:46 +0000.747064][32e4] Cleanup the buffer queue in the
recorder.
[002:891] [2025-07-07 06:36:46 +0000.747113][32e4] Destroy the recorder.
[002:893] [2025-07-07 06:36:46 +0000.749155][32e4] StopRecording finished.
[002:893] [2025-07-07 06:36:46 +0000.749300][32e4] The stop recording success.
[002:894] [2025-07-07 06:36:46 +0000.750141][32e4]
AudioDeviceDataHandler::StopMicProcess
[002:896] [2025-07-07 06:36:46 +0000.752253][32e4] AppDeviceManager stop.
[002:897] [2025-07-07 06:36:46 +0000.752538][32e4] Rlease the webrtc device object.
[002:898] [2025-07-07 06:36:46 +0000.754369][32e4] OpenSlesInput destruct.
[002:899] [2025-07-07 06:36:46 +0000.754614][32e4] OpenSlesOutput destruct.
[002:899] [2025-07-07 06:36:46 +0000.755295][32e4] EventDispatchServerScope
destruct
[002:899] [2025-07-07 06:36:46 +0000.755372][32e4]
Warning([Link]): PhysicalSocketServer destruct
[002:900] [2025-07-07 06:36:46 +0000.755463][32e4] ~AudioDeviceDataHandler
[002:900] [2025-07-07 06:36:46 +0000.756374][32e4] AppDeviceManagerDestruct.
[002:901] [2025-07-07 06:36:46 +0000.756493][32e4] ~AppDeviceManager:
[002:901] [2025-07-07 06:36:46 +0000.756581][32e4] ~CpuOverloadDetect
time:769379298 enter.
[002:901] [2025-07-07 06:36:46 +0000.757107][32e4] ~CpuOverloadDetect leave.
expire time = 0 ms
[002:906] [2025-07-07 06:36:46 +0000.761496][32e4] Destruct BeautifyReader begin...
[002:906] [2025-07-07 06:36:46 +0000.761637][32e4] Destruct BeautifyReader done.
[002:906] [2025-07-07 06:36:46 +0000.761696][32e4] ~MediaFilterCamera leave.
expire time = 258 ms
[002:906] [2025-07-07 06:36:46 +0000.761963][32e4] ~GLESContext:
[002:914] [2025-07-07 06:36:46 +0000.769996][32e4] GLESContext destruct finish.
[002:914] [2025-07-07 06:36:46 +0000.770270][32e4] ~RecordingSessionInternalSimple:
RecordingSessionInternalSimple::~RecordingSessionInternalSimple
[002:915] [2025-07-07 06:36:46 +0000.770928][32e4] global uninited!
[002:917] [2025-07-07 06:36:46 +0000.772812][32e4] clear AppID 50011
[002:917] [2025-07-07 06:36:46 +0000.772974][32e4] UnRegister JVM for Xplatform
util
[002:917] [2025-07-07 06:36:46 +0000.773037][32e4] Dispose::unregister webrtc video
engine
[002:917] [2025-07-07 06:36:46 +0000.773091][32e4] Init the android object with
jvm:0x0 env:0x0 context:0x0
[002:917] [2025-07-07 06:36:46 +0000.773160][32e4] SetAndroidMediaCodecObjects
time:769379314 enter.
[002:917] [2025-07-07 06:36:46 +0000.773214][32e4] ClearAndroidMediaCodecObjects
time:769379314 enter.
[002:917] [2025-07-07 06:36:46 +0000.773284][32e4] ClearAndroidMediaCodecObjects
leave. expire time = 0 ms
[002:917] [2025-07-07 06:36:46 +0000.773342][32e4] SetAndroidMediaCodecObjects
leave. expire time = 0 ms
[002:917] [2025-07-07 06:36:46 +0000.773396][32e4] SetAndroidMediaCodecObjects
time:769379314 enter.
[002:918] [2025-07-07 06:36:46 +0000.773440][32e4] SetAndroidMediaCodecObjects:
SetAndroidMediaCodecObjects:: jvm :0x0
[002:918] [2025-07-07 06:36:46 +0000.773483][32e4] ClearAndroidMediaCodecObjects
time:769379315 enter.
[002:918] [2025-07-07 06:36:46 +0000.773513][32e4] ClearAndroidMediaCodecObjects
leave. expire time = 0 ms
[002:918] [2025-07-07 06:36:46 +0000.773570][32e4] SetAndroidMediaCodecObjects:
SetAndroidMediaCodecObjects failed
[002:918] [2025-07-07 06:36:46 +0000.773611][32e4] SetAndroidMediaCodecObjects
leave. expire time = 1 ms
[002:918] [2025-07-07 06:36:46 +0000.773844][32e4] Dispose::unregister webrtc voice
engine
[002:918] [2025-07-07 06:36:46 +0000.773906][32e4] Set the android objects with
jvm:0x0 env:0x0 context:0x0
[002:918] [2025-07-07 06:36:46 +0000.773957][32e4] SystemUtil UnIni